Wetterdaten: Montag, 24.02.2020
Datum Zeit Temp. Aussen Temp. o. S. Temp +5cm Feuchte Auss Luftdruck Regen Sonnenschein Regendauer Solar Windben Empfang
24.02.2020 00:00 4,8 C 3,9 C 3,9 C 88 % 1023,6 hPa 0,0 l/m 0 min 0 min 0 W/m 19,3 km/h (3 Bft) 100,00 %
24.02.2020 00:02 4,8 C 3,9 C 3,9 C 88 % 1023,7 hPa 0,0 l/m 0 min 0 min 0 W/m 16,1 km/h (3 Bft) 94,59 %
24.02.2020 00:04 4,8 C 3,9 C 3,3 C 88 % 1023,7 hPa 0,0 l/m 0 min 0 min 0 W/m 6,4 km/h (2 Bft) 100,00 %
24.02.2020 00:08 4,8 C 3,9 C 3,3 C 88 % 1023,7 hPa 0,0 l/m 0 min 0 min 0 W/m 9,7 km/h (2 Bft) 98,94 %
24.02.2020 00:10 4,7 C 3,9 C 3,3 C 88 % 1023,7 hPa 0,0 l/m 0 min 0 min 0 W/m 9,7 km/h (2 Bft) 100,00 %
24.02.2020 00:12 4,7 C 3,9 C 3,3 C 88 % 1023,8 hPa 0,0 l/m 0 min 0 min 0 W/m 6,4 km/h (2 Bft) 100,00 %
24.02.2020 00:14 4,7 C 3,9 C 3,3 C 88 % 1023,8 hPa 0,0 l/m 0 min 0 min 0 W/m 9,7 km/h (2 Bft) 100,00 %
24.02.2020 00:16 4,7 C 3,9 C 3,3 C 88 % 1023,8 hPa 0,0 l/m 0 min 0 min 0 W/m 6,4 km/h (2 Bft) 100,00 %
24.02.2020 00:18 4,7 C 3,3 C 3,3 C 88 % 1023,9 hPa 0,0 l/m 0 min 0 min 0 W/m 12,9 km/h (3 Bft) 100,00 %
24.02.2020 00:20 4,6 C 3,3 C 3,3 C 88 % 1023,9 hPa 0,0 l/m 0 min 0 min 0 W/m 6,4 km/h (2 Bft) 100,00 %
24.02.2020 00:22 4,6 C 3,9 C 3,3 C 88 % 1023,9 hPa 0,0 l/m 0 min 0 min 0 W/m 9,7 km/h (2 Bft) 100,00 %
24.02.2020 00:24 4,6 C 3,9 C 3,3 C 88 % 1023,9 hPa 0,0 l/m 0 min 0 min 0 W/m 6,4 km/h (2 Bft) 100,00 %
24.02.2020 00:26 4,6 C 3,9 C 3,3 C 88 % 1024,0 hPa 0,0 l/m 0 min 0 min 0 W/m 9,7 km/h (2 Bft) 100,00 %
24.02.2020 00:28 4,6 C 3,3 C 3,3 C 88 % 1024,1 hPa 0,0 l/m 0 min 0 min 0 W/m 6,4 km/h (2 Bft) 100,00 %
24.02.2020 00:30 4,6 C 3,3 C 3,3 C 88 % 1024,1 hPa 0,0 l/m 0 min 0 min 0 W/m 6,4 km/h (2 Bft) 100,00 %
24.02.2020 00:32 4,6 C 3,3 C 3,3 C 88 % 1024,1 hPa 0,0 l/m 0 min 0 min 0 W/m 3,2 km/h (1 Bft) 100,00 %
24.02.2020 00:34 4,5 C 3,3 C 2,8 C 88 % 1024,1 hPa 0,0 l/m 0 min 0 min 0 W/m 3,2 km/h (1 Bft) 100,00 %
24.02.2020 00:36 4,5 C 3,3 C 2,8 C 88 % 1024,1 hPa 0,0 l/m 0 min 0 min 0 W/m 0,0 km/h (0 Bft) 100,00 %
24.02.2020 00:38 4,4 C 3,3 C 2,8 C 88 % 1024,1 hPa 0,0 l/m 0 min 0 min 0 W/m 0,0 km/h (0 Bft) 97,87 %
24.02.2020 00:40 4,4 C 3,3 C 2,8 C 88 % 1024,1 hPa 0,0 l/m 0 min 0 min 0 W/m 0,0 km/h (0 Bft) 95,74 %
24.02.2020 00:42 4,4 C 3,3 C 2,2 C 88 % 1024,1 hPa 0,0 l/m 0 min 0 min 0 W/m 0,0 km/h (0 Bft) 100,00 %
24.02.2020 00:44 4,4 C 3,3 C 2,2 C 88 % 1024,1 hPa 0,0 l/m 0 min 0 min 0 W/m 0,0 km/h (0 Bft) 100,00 %
24.02.2020 00:46 4,4 C 3,3 C 2,2 C 88 % 1024,1 hPa 0,0 l/m 0 min 0 min 0 W/m 3,2 km/h (1 Bft) 100,00 %
24.02.2020 00:48 4,3 C 2,8 C 2,2 C 87 % 1024,1 hPa 0,0 l/m 0 min 0 min 0 W/m 3,2 km/h (1 Bft) 100,00 %
24.02.2020 00:50 4,3 C 2,8 C 2,2 C 87 % 1024,1 hPa 0,0 l/m 0 min 0 min 0 W/m 0,0 km/h (0 Bft) 100,00 %
24.02.2020 00:52 4,3 C 2,8 C 2,2 C 87 % 1024,2 hPa 0,0 l/m 0 min 0 min 0 W/m 0,0 km/h (0 Bft) 97,87 %
24.02.2020 00:54 4,3 C 2,8 C 2,2 C 87 % 1024,2 hPa 0,0 l/m 0 min 0 min 0 W/m 0,0 km/h (0 Bft) 100,00 %
24.02.2020 00:56 4,3 C 2,8 C 2,2 C 87 % 1024,2 hPa 0,0 l/m 0 min 0 min 0 W/m 0,0 km/h (0 Bft) 100,00 %
24.02.2020 00:58 4,3 C 2,8 C 1,7 C 87 % 1024,2 hPa 0,0 l/m 0 min 0 min 0 W/m 3,2 km/h (1 Bft) 100,00 %
24.02.2020 01:00 4,2 C 3,3 C 2,2 C 87 % 1024,2 hPa 0,0 l/m 0 min 0 min 0 W/m 3,2 km/h (1 Bft) 50,00 %
24.02.2020 01:02 4,2 C 3,3 C 2,2 C 87 % 1024,2 hPa 0,0 l/m 0 min 0 min 0 W/m 3,2 km/h (1 Bft) 95,74 %
24.02.2020 01:04 4,2 C 3,3 C 2,2 C 87 % 1024,1 hPa 0,0 l/m 0 min 0 min 0 W/m 3,2 km/h (1 Bft) 97,87 %
24.02.2020 01:06 4,1 C 2,8 C 2,2 C 87 % 1024,1 hPa 0,0 l/m 0 min 0 min 0 W/m 0,0 km/h (0 Bft) 97,87 %
24.02.2020 01:08 4,1 C 2,8 C 2,2 C 87 % 1024,1 hPa 0,0 l/m 0 min 0 min 0 W/m 9,7 km/h (2 Bft) 95,74 %
24.02.2020 01:10 4,1 C 2,8 C 2,2 C 87 % 1024,1 hPa 0,0 l/m 0 min 0 min 0 W/m 3,2 km/h (1 Bft) 95,65 %
24.02.2020 01:12 4,1 C 2,8 C 1,7 C 87 % 1024,2 hPa 0,0 l/m 0 min 0 min 0 W/m 3,2 km/h (1 Bft) 95,74 %
24.02.2020 01:14 4,0 C 2,8 C 1,7 C 87 % 1024,3 hPa 0,0 l/m 0 min 0 min 0 W/m 0,0 km/h (0 Bft) 97,87 %
24.02.2020 01:16 4,0 C 2,8 C 1,7 C 87 % 1024,3 hPa 0,0 l/m 0 min 0 min 0 W/m 0,0 km/h (0 Bft) 97,87 %
24.02.2020 01:18 3,9 C 2,8 C 1,7 C 87 % 1024,2 hPa 0,0 l/m 0 min 0 min 0 W/m 0,0 km/h (0 Bft) 95,74 %
24.02.2020 01:20 3,9 C 2,8 C 1,7 C 87 % 1024,3 hPa 0,0 l/m 0 min 0 min 0 W/m 0,0 km/h (0 Bft) 95,74 %
24.02.2020 01:22 3,9 C 2,8 C 1,7 C 87 % 1024,4 hPa 0,0 l/m 0 min 0 min 0 W/m 0,0 km/h (0 Bft) 93,48 %
24.02.2020 01:24 3,9 C 2,8 C 1,7 C 87 % 1024,3 hPa 0,0 l/m 0 min 0 min 0 W/m 0,0 km/h (0 Bft) 93,62 %
24.02.2020 01:26 3,8 C 2,8 C 1,7 C 87 % 1024,3 hPa 0,0 l/m 0 min 0 min 0 W/m 0,0 km/h (0 Bft) 95,74 %
24.02.2020 01:28 3,8 C 2,8 C 1,7 C 87 % 1024,3 hPa 0,0 l/m 0 min 0 min 0 W/m 6,4 km/h (2 Bft) 95,74 %
24.02.2020 01:30 3,8 C 2,8 C 1,7 C 87 % 1024,4 hPa 0,0 l/m 0 min 0 min 0 W/m 3,2 km/h (1 Bft) 95,74 %
24.02.2020 01:32 3,8 C 2,8 C 1,7 C 87 % 1024,3 hPa 0,0 l/m 0 min 0 min 0 W/m 0,0 km/h (0 Bft) 95,65 %
24.02.2020 01:34 3,8 C 2,8 C 2,2 C 88 % 1024,4 hPa 0,0 l/m 0 min 0 min 0 W/m 0,0 km/h (0 Bft) 91,49 %
24.02.2020 01:36 3,7 C 3,3 C 2,2 C 88 % 1024,4 hPa 0,0 l/m 0 min 0 min 0 W/m 0,0 km/h (0 Bft) 95,74 %
24.02.2020 01:38 3,7 C 2,8 C 2,2 C 88 % 1024,4 hPa 0,0 l/m 0 min 0 min 0 W/m 0,0 km/h (0 Bft) 95,74 %
24.02.2020 01:40 3,7 C 2,8 C 2,2 C 88 % 1024,4 hPa 0,0 l/m 0 min 0 min 0 W/m 0,0 km/h (0 Bft) 95,74 %
24.02.2020 01:42 3,7 C 2,8 C 2,2 C 88 % 1024,4 hPa 0,0 l/m 0 min 0 min 0 W/m 0,0 km/h (0 Bft) 91,49 %
24.02.2020 01:44 3,7 C 2,8 C 1,7 C 88 % 1024,4 hPa 0,0 l/m 0 min 0 min 0 W/m 0,0 km/h (0 Bft) 95,65 %
24.02.2020 01:46 3,7 C 2,8 C 1,7 C 88 % 1024,3 hPa 0,0 l/m 0 min 0 min 0 W/m 3,2 km/h (1 Bft) 93,62 %
24.02.2020 01:48 3,7 C 2,8 C 1,7 C 88 % 1024,3 hPa 0,0 l/m 0 min 0 min 0 W/m 3,2 km/h (1 Bft) 93,62 %
24.02.2020 01:50 3,7 C 2,8 C 2,2 C 88 % 1024,4 hPa 0,0 l/m 0 min 0 min 0 W/m 3,2 km/h (1 Bft) 89,36 %
24.02.2020 01:52 3,6 C 2,8 C 2,2 C 88 % 1024,3 hPa 0,0 l/m 0 min 0 min 0 W/m 0,0 km/h (0 Bft) 95,74 %
24.02.2020 01:54 3,6 C 2,8 C 2,2 C 88 % 1024,3 hPa 0,0 l/m 0 min 0 min 0 W/m 0,0 km/h (0 Bft) 82,98 %
24.02.2020 01:56 3,6 C 2,8 C 2,2 C 88 % 1024,3 hPa 0,0 l/m 0 min 0 min 0 W/m 6,4 km/h (2 Bft) 62,50 %
24.02.2020 01:58 3,6 C 2,8 C 2,2 C 88 % 1024,3 hPa 0,0 l/m 0 min 0 min 0 W/m 3,2 km/h (1 Bft) 93,62 %
24.02.2020 02:00 3,6 C 2,8 C 2,2 C 88 % 1024,4 hPa 0,0 l/m 0 min 0 min 0 W/m 3,2 km/h (1 Bft) 95,74 %
24.02.2020 02:02 3,6 C 2,8 C 2,2 C 88 % 1024,4 hPa 0,0 l/m 0 min 0 min 0 W/m 3,2 km/h (1 Bft) 95,74 %
24.02.2020 02:04 3,6 C 2,8 C 2,2 C 88 % 1024,3 hPa 0,0 l/m 0 min 0 min 0 W/m 3,2 km/h (1 Bft) 95,74 %
24.02.2020 02:06 3,6 C 2,8 C 2,2 C 88 % 1024,4 hPa 0,0 l/m 0 min 0 min 0 W/m 6,4 km/h (2 Bft) 95,65 %
24.02.2020 02:08 3,6 C 2,8 C 2,2 C 88 % 1024,4 hPa 0,0 l/m 0 min 0 min 0 W/m 6,4 km/h (2 Bft) 91,49 %
24.02.2020 02:10 3,6 C 2,8 C 2,2 C 88 % 1024,4 hPa 0,0 l/m 0 min 0 min 0 W/m 6,4 km/h (2 Bft) 97,87 %
24.02.2020 02:12 3,6 C 2,8 C 2,2 C 88 % 1024,5 hPa 0,0 l/m 0 min 0 min 0 W/m 6,4 km/h (2 Bft) 97,87 %
24.02.2020 02:14 3,5 C 2,8 C 2,2 C 88 % 1024,4 hPa 0,0 l/m 0 min 0 min 0 W/m 3,2 km/h (1 Bft) 97,87 %
24.02.2020 02:16 3,5 C 2,8 C 2,2 C 88 % 1024,5 hPa 0,0 l/m 0 min 0 min 0 W/m 3,2 km/h (1 Bft) 95,74 %
24.02.2020 02:18 3,5 C 2,8 C 2,2 C 88 % 1024,4 hPa 0,0 l/m 0 min 0 min 0 W/m 3,2 km/h (1 Bft) 97,87 %
24.02.2020 02:20 3,5 C 2,8 C 2,2 C 88 % 1024,5 hPa 0,0 l/m 0 min 0 min 0 W/m 3,2 km/h (1 Bft) 97,83 %
24.02.2020 02:22 3,5 C 2,8 C 2,2 C 88 % 1024,5 hPa 0,0 l/m 0 min 0 min 0 W/m 3,2 km/h (1 Bft) 97,87 %
24.02.2020 02:24 3,4 C 2,2 C 1,7 C 88 % 1024,5 hPa 0,0 l/m 0 min 0 min 0 W/m 0,0 km/h (0 Bft) 97,87 %
24.02.2020 02:26 3,4 C 2,2 C 1,7 C 88 % 1024,5 hPa 0,0 l/m 0 min 0 min 0 W/m 0,0 km/h (0 Bft) 95,74 %
24.02.2020 02:28 3,4 C 2,2 C 1,7 C 88 % 1024,4 hPa 0,0 l/m 0 min 0 min 0 W/m 3,2 km/h (1 Bft) 97,87 %
24.02.2020 02:30 3,4 C 2,2 C 1,7 C 88 % 1024,5 hPa 0,0 l/m 0 min 0 min 0 W/m 3,2 km/h (1 Bft) 97,83 %
24.02.2020 02:32 3,4 C 2,2 C 1,7 C 88 % 1024,5 hPa 0,0 l/m 0 min 0 min 0 W/m 3,2 km/h (1 Bft) 100,00 %
24.02.2020 02:34 3,4 C 2,2 C 1,7 C 88 % 1024,5 hPa 0,0 l/m 0 min 0 min 0 W/m 0,0 km/h (0 Bft) 100,00 %
24.02.2020 02:36 3,4 C 2,2 C 1,7 C 88 % 1024,5 hPa 0,0 l/m 0 min 0 min 0 W/m 0,0 km/h (0 Bft) 100,00 %
24.02.2020 02:38 3,4 C 2,8 C 1,7 C 88 % 1024,6 hPa 0,0 l/m 0 min 0 min 0 W/m 6,4 km/h (2 Bft) 100,00 %
24.02.2020 02:40 3,3 C 2,8 C 1,7 C 88 % 1024,6 hPa 0,0 l/m 0 min 0 min 0 W/m 6,4 km/h (2 Bft) 97,87 %
24.02.2020 02:42 3,3 C 2,8 C 1,7 C 88 % 1024,6 hPa 0,0 l/m 0 min 0 min 0 W/m 3,2 km/h (1 Bft) 100,00 %
24.02.2020 02:44 3,3 C 2,8 C 2,2 C 88 % 1024,6 hPa 0,0 l/m 0 min 0 min 0 W/m 6,4 km/h (2 Bft) 100,00 %
24.02.2020 02:46 3,3 C 2,8 C 2,2 C 88 % 1024,5 hPa 0,0 l/m 0 min 0 min 0 W/m 9,7 km/h (2 Bft) 97,87 %
24.02.2020 02:48 3,3 C 2,8 C 2,2 C 88 % 1024,4 hPa 0,0 l/m 0 min 0 min 0 W/m 3,2 km/h (1 Bft) 100,00 %
24.02.2020 02:50 3,3 C 2,8 C 2,2 C 88 % 1024,3 hPa 0,0 l/m 0 min 0 min 0 W/m 6,4 km/h (2 Bft) 97,87 %
24.02.2020 02:52 3,3 C 2,8 C 2,2 C 88 % 1024,4 hPa 0,0 l/m 0 min 0 min 0 W/m 6,4 km/h (2 Bft) 100,00 %
24.02.2020 02:54 3,3 C 2,8 C 2,2 C 88 % 1024,4 hPa 0,0 l/m 0 min 0 min 0 W/m 3,2 km/h (1 Bft) 97,83 %
24.02.2020 02:56 3,3 C 2,8 C 2,2 C 88 % 1024,3 hPa 0,0 l/m 0 min 0 min 0 W/m 3,2 km/h (1 Bft) 100,00 %
24.02.2020 02:58 3,3 C 2,8 C 2,2 C 88 % 1024,4 hPa 0,0 l/m 0 min 0 min 0 W/m 3,2 km/h (1 Bft) 97,87 %
24.02.2020 03:00 3,3 C 2,8 C 2,2 C 88 % 1024,5 hPa 0,0 l/m 0 min 0 min 0 W/m 3,2 km/h (1 Bft) 97,87 %
24.02.2020 03:02 3,3 C 2,8 C 2,2 C 88 % 1024,5 hPa 0,0 l/m 0 min 0 min 0 W/m 6,4 km/h (2 Bft) 100,00 %
24.02.2020 03:04 3,3 C 2,8 C 2,2 C 88 % 1024,4 hPa 0,0 l/m 0 min 0 min 0 W/m 3,2 km/h (1 Bft) 100,00 %
24.02.2020 03:06 3,3 C 2,8 C 2,2 C 89 % 1024,4 hPa 0,0 l/m 0 min 0 min 0 W/m 0,0 km/h (0 Bft) 100,00 %
24.02.2020 03:08 3,3 C 2,8 C 2,2 C 89 % 1024,4 hPa 0,0 l/m 0 min 0 min 0 W/m 0,0 km/h (0 Bft) 100,00 %
24.02.2020 03:10 3,3 C 2,8 C 2,2 C 89 % 1024,4 hPa 0,0 l/m 0 min 0 min 0 W/m 0,0 km/h (0 Bft) 100,00 %
24.02.2020 03:12 3,3 C 2,8 C 2,2 C 89 % 1024,3 hPa 0,0 l/m 0 min 0 min 0 W/m 0,0 km/h (0 Bft) 97,87 %
24.02.2020 03:14 3,3 C 2,8 C 2,2 C 89 % 1024,3 hPa 0,0 l/m 0 min 0 min 0 W/m 0,0 km/h (0 Bft) 100,00 %
24.02.2020 03:16 3,3 C 2,8 C 2,2 C 89 % 1024,3 hPa 0,0 l/m 0 min 0 min 0 W/m 3,2 km/h (1 Bft) 100,00 %
24.02.2020 03:18 3,3 C 2,8 C 2,2 C 89 % 1024,3 hPa 0,0 l/m 0 min 0 min 0 W/m 3,2 km/h (1 Bft) 97,87 %
24.02.2020 03:20 3,3 C 2,8 C 2,8 C 89 % 1024,4 hPa 0,0 l/m 0 min 0 min 0 W/m 6,4 km/h (2 Bft) 97,87 %
24.02.2020 03:22 3,3 C 2,8 C 2,8 C 89 % 1024,5 hPa 0,0 l/m 0 min 0 min 0 W/m 6,4 km/h (2 Bft) 97,87 %
24.02.2020 03:24 3,3 C 3,3 C 2,8 C 89 % 1024,5 hPa 0,0 l/m 0 min 0 min 0 W/m 6,4 km/h (2 Bft) 97,87 %
24.02.2020 03:26 3,3 C 3,3 C 2,8 C 89 % 1024,5 hPa 0,0 l/m 0 min 0 min 0 W/m 6,4 km/h (2 Bft) 97,87 %
24.02.2020 03:28 3,3 C 2,8 C 2,8 C 89 % 1024,4 hPa 0,0 l/m 0 min 0 min 0 W/m 3,2 km/h (1 Bft) 97,83 %
24.02.2020 03:30 3,4 C 3,3 C 2,8 C 89 % 1024,4 hPa 0,0 l/m 0 min 0 min 0 W/m 6,4 km/h (2 Bft) 95,74 %
24.02.2020 03:32 3,4 C 3,3 C 2,8 C 89 % 1024,4 hPa 0,0 l/m 0 min 0 min 0 W/m 6,4 km/h (2 Bft) 95,74 %
24.02.2020 03:34 3,4 C 3,3 C 2,8 C 89 % 1024,4 hPa 0,0 l/m 0 min 0 min 0 W/m 6,4 km/h (2 Bft) 97,87 %
24.02.2020 03:36 3,4 C 3,3 C 2,8 C 89 % 1024,4 hPa 0,0 l/m 0 min 0 min 0 W/m 6,4 km/h (2 Bft) 95,74 %
24.02.2020 03:38 3,4 C 3,3 C 2,8 C 89 % 1024,4 hPa 0,0 l/m 0 min 0 min 0 W/m 0,0 km/h (0 Bft) 97,87 %
24.02.2020 03:40 3,4 C 3,3 C 2,8 C 89 % 1024,4 hPa 0,0 l/m 0 min 0 min 0 W/m 6,4 km/h (2 Bft) 95,65 %
24.02.2020 03:42 3,4 C 3,3 C 2,8 C 89 % 1024,3 hPa 0,0 l/m 0 min 0 min 0 W/m 6,4 km/h (2 Bft) 97,87 %
24.02.2020 03:44 3,5 C 3,3 C 2,8 C 89 % 1024,4 hPa 0,0 l/m 0 min 0 min 0 W/m 6,4 km/h (2 Bft) 97,87 %
24.02.2020 03:46 3,5 C 3,3 C 2,8 C 89 % 1024,4 hPa 0,0 l/m 0 min 0 min 0 W/m 9,7 km/h (2 Bft) 97,87 %
24.02.2020 03:48 3,5 C 3,3 C 2,8 C 89 % 1024,4 hPa 0,0 l/m 0 min 0 min 0 W/m 6,4 km/h (2 Bft) 97,87 %
24.02.2020 03:50 3,6 C 3,3 C 2,8 C 89 % 1024,4 hPa 0,0 l/m 0 min 0 min 0 W/m 9,7 km/h (2 Bft) 97,87 %
24.02.2020 03:52 3,6 C 3,3 C 2,8 C 89 % 1024,3 hPa 0,0 l/m 0 min 0 min 0 W/m 6,4 km/h (2 Bft) 97,83 %
24.02.2020 03:54 3,6 C 3,3 C 2,8 C 89 % 1024,4 hPa 0,0 l/m 0 min 0 min 0 W/m 9,7 km/h (2 Bft) 97,87 %
24.02.2020 03:56 3,6 C 3,3 C 2,8 C 89 % 1024,4 hPa 0,0 l/m 0 min 0 min 0 W/m 6,4 km/h (2 Bft) 95,74 %
24.02.2020 03:58 3,6 C 3,3 C 2,8 C 89 % 1024,4 hPa 0,0 l/m 0 min 0 min 0 W/m 6,4 km/h (2 Bft) 95,74 %
24.02.2020 04:00 3,6 C 3,3 C 2,8 C 89 % 1024,4 hPa 0,0 l/m 0 min 0 min 0 W/m 9,7 km/h (2 Bft) 97,87 %
24.02.2020 04:05 3,7 C 3,3 C 2,8 C 89 % 1024,4 hPa 0,0 l/m 0 min 0 min 0 W/m 9,7 km/h (2 Bft) 98,41 %
24.02.2020 04:06 3,7 C 3,3 C 2,8 C 89 % 1024,4 hPa 0,0 l/m 0 min 0 min 0 W/m 6,4 km/h (2 Bft) 95,65 %
24.02.2020 04:08 3,7 C 3,3 C 2,8 C 89 % 1024,4 hPa 0,0 l/m 0 min 0 min 0 W/m 9,7 km/h (2 Bft) 100,00 %
24.02.2020 04:10 3,7 C 3,3 C 2,8 C 89 % 1024,4 hPa 0,0 l/m 0 min 0 min 0 W/m 9,7 km/h (2 Bft) 100,00 %
24.02.2020 04:12 3,7 C 3,3 C 2,8 C 89 % 1024,4 hPa 0,0 l/m 0 min 0 min 0 W/m 6,4 km/h (2 Bft) 97,87 %
24.02.2020 04:14 3,7 C 3,3 C 2,8 C 89 % 1024,4 hPa 0,0 l/m 0 min 0 min 0 W/m 6,4 km/h (2 Bft) 100,00 %
24.02.2020 04:16 3,8 C 3,3 C 2,8 C 89 % 1024,3 hPa 0,0 l/m 0 min 0 min 0 W/m 9,7 km/h (2 Bft) 100,00 %
24.02.2020 04:18 3,8 C 3,3 C 2,8 C 89 % 1024,3 hPa 0,0 l/m 0 min 0 min 0 W/m 6,4 km/h (2 Bft) 97,87 %
24.02.2020 04:20 3,8 C 3,3 C 2,8 C 89 % 1024,4 hPa 0,0 l/m 0 min 0 min 0 W/m 6,4 km/h (2 Bft) 97,87 %
24.02.2020 04:22 3,8 C 3,3 C 2,8 C 89 % 1024,3 hPa 0,0 l/m 0 min 0 min 0 W/m 6,4 km/h (2 Bft) 97,87 %
24.02.2020 04:24 3,8 C 3,3 C 2,8 C 88 % 1024,3 hPa 0,0 l/m 0 min 0 min 0 W/m 3,2 km/h (1 Bft) 95,74 %
24.02.2020 04:26 3,8 C 3,3 C 2,8 C 88 % 1024,4 hPa 0,0 l/m 0 min 0 min 0 W/m 9,7 km/h (2 Bft) 95,65 %
24.02.2020 04:28 3,8 C 3,3 C 2,8 C 88 % 1024,4 hPa 0,0 l/m 0 min 0 min 0 W/m 6,4 km/h (2 Bft) 95,74 %
24.02.2020 04:30 3,9 C 3,3 C 2,8 C 89 % 1024,3 hPa 0,0 l/m 0 min 0 min 0 W/m 0,0 km/h (0 Bft) 97,87 %
24.02.2020 04:32 3,9 C 3,3 C 2,8 C 89 % 1024,3 hPa 0,0 l/m 0 min 0 min 0 W/m 3,2 km/h (1 Bft) 95,74 %
24.02.2020 04:34 3,9 C 3,3 C 2,8 C 88 % 1024,3 hPa 0,0 l/m 0 min 0 min 0 W/m 6,4 km/h (2 Bft) 93,62 %
24.02.2020 04:36 3,9 C 3,3 C 2,8 C 88 % 1024,4 hPa 0,0 l/m 0 min 0 min 0 W/m 3,2 km/h (1 Bft) 95,74 %
24.02.2020 04:38 3,9 C 3,3 C 2,8 C 88 % 1024,3 hPa 0,0 l/m 0 min 0 min 0 W/m 6,4 km/h (2 Bft) 93,48 %
24.02.2020 04:40 3,9 C 3,3 C 2,8 C 88 % 1024,4 hPa 0,0 l/m 0 min 0 min 0 W/m 0,0 km/h (0 Bft) 95,74 %
24.02.2020 04:42 3,9 C 3,3 C 2,8 C 88 % 1024,3 hPa 0,0 l/m 0 min 0 min 0 W/m 0,0 km/h (0 Bft) 93,62 %
24.02.2020 04:44 3,9 C 3,3 C 2,8 C 88 % 1024,4 hPa 0,0 l/m 0 min 0 min 0 W/m 0,0 km/h (0 Bft) 93,62 %
24.02.2020 04:46 3,9 C 3,3 C 2,8 C 88 % 1024,4 hPa 0,0 l/m 0 min 0 min 0 W/m 0,0 km/h (0 Bft) 93,62 %
24.02.2020 04:48 3,9 C 3,3 C 2,8 C 88 % 1024,4 hPa 0,0 l/m 0 min 0 min 0 W/m 0,0 km/h (0 Bft) 95,74 %
24.02.2020 04:50 3,9 C 3,3 C 2,8 C 88 % 1024,4 hPa 0,0 l/m 0 min 0 min 0 W/m 0,0 km/h (0 Bft) 95,65 %
24.02.2020 04:52 3,9 C 3,3 C 2,8 C 88 % 1024,3 hPa 0,0 l/m 0 min 0 min 0 W/m 0,0 km/h (0 Bft) 97,87 %
24.02.2020 04:54 3,9 C 3,3 C 2,8 C 88 % 1024,3 hPa 0,0 l/m 0 min 0 min 0 W/m 0,0 km/h (0 Bft) 93,62 %
24.02.2020 04:56 3,9 C 3,3 C 2,8 C 88 % 1024,4 hPa 0,0 l/m 0 min 0 min 0 W/m 0,0 km/h (0 Bft) 95,74 %
24.02.2020 04:58 3,9 C 3,3 C 2,8 C 88 % 1024,3 hPa 0,0 l/m 0 min 0 min 0 W/m 0,0 km/h (0 Bft) 95,74 %
24.02.2020 05:00 3,9 C 3,3 C 2,8 C 88 % 1024,2 hPa 0,0 l/m 0 min 0 min 0 W/m 0,0 km/h (0 Bft) 95,74 %
24.02.2020 05:02 3,9 C 3,3 C 2,8 C 88 % 1024,2 hPa 0,0 l/m 0 min 0 min 0 W/m 0,0 km/h (0 Bft) 95,65 %
24.02.2020 05:04 3,9 C 3,3 C 2,8 C 88 % 1024,1 hPa 0,0 l/m 0 min 0 min 0 W/m 0,0 km/h (0 Bft) 97,87 %
24.02.2020 05:06 3,9 C 3,3 C 2,8 C 88 % 1024,2 hPa 0,0 l/m 0 min 0 min 0 W/m 0,0 km/h (0 Bft) 97,87 %
24.02.2020 05:08 3,9 C 3,3 C 2,8 C 88 % 1024,1 hPa 0,0 l/m 0 min 0 min 0 W/m 6,4 km/h (2 Bft) 97,87 %
24.02.2020 05:10 3,9 C 3,3 C 2,8 C 88 % 1024,0 hPa 0,0 l/m 0 min 0 min 0 W/m 9,7 km/h (2 Bft) 97,87 %
24.02.2020 05:12 3,9 C 3,3 C 2,8 C 88 % 1024,0 hPa 0,0 l/m 0 min 0 min 0 W/m 9,7 km/h (2 Bft) 95,65 %
24.02.2020 05:14 3,9 C 3,3 C 2,8 C 88 % 1024,0 hPa 0,0 l/m 0 min 0 min 0 W/m 6,4 km/h (2 Bft) 97,87 %
24.02.2020 05:16 3,9 C 3,3 C 2,8 C 88 % 1024,0 hPa 0,0 l/m 0 min 0 min 0 W/m 3,2 km/h (1 Bft) 97,87 %
24.02.2020 05:18 3,8 C 3,3 C 2,8 C 88 % 1023,9 hPa 0,0 l/m 0 min 0 min 0 W/m 6,4 km/h (2 Bft) 97,87 %
24.02.2020 05:20 3,9 C 3,3 C 2,8 C 88 % 1023,9 hPa 0,0 l/m 0 min 0 min 0 W/m 0,0 km/h (0 Bft) 97,87 %
24.02.2020 05:22 3,8 C 3,3 C 2,8 C 88 % 1023,8 hPa 0,0 l/m 0 min 0 min 0 W/m 0,0 km/h (0 Bft) 95,74 %
24.02.2020 05:24 3,8 C 3,3 C 2,8 C 88 % 1023,7 hPa 0,0 l/m 0 min 0 min 0 W/m 0,0 km/h (0 Bft) 97,83 %
24.02.2020 05:26 3,9 C 3,3 C 2,8 C 88 % 1023,6 hPa 0,0 l/m 0 min 0 min 0 W/m 0,0 km/h (0 Bft) 100,00 %
24.02.2020 05:28 3,9 C 3,3 C 2,8 C 88 % 1023,6 hPa 0,0 l/m 0 min 0 min 0 W/m 0,0 km/h (0 Bft) 97,87 %
24.02.2020 05:30 3,9 C 3,3 C 2,8 C 88 % 1023,7 hPa 0,0 l/m 0 min 0 min 0 W/m 0,0 km/h (0 Bft) 100,00 %
24.02.2020 05:32 3,9 C 3,3 C 2,8 C 88 % 1023,6 hPa 0,0 l/m 0 min 0 min 0 W/m 0,0 km/h (0 Bft) 100,00 %
24.02.2020 05:34 3,9 C 3,3 C 2,8 C 88 % 1023,4 hPa 0,0 l/m 0 min 0 min 0 W/m 0,0 km/h (0 Bft) 100,00 %
24.02.2020 05:36 3,9 C 3,3 C 2,8 C 88 % 1023,5 hPa 0,0 l/m 0 min 0 min 0 W/m 0,0 km/h (0 Bft) 100,00 %
24.02.2020 05:38 3,9 C 3,3 C 2,8 C 88 % 1023,6 hPa 0,0 l/m 0 min 0 min 0 W/m 0,0 km/h (0 Bft) 97,87 %
24.02.2020 05:40 3,9 C 3,3 C 2,8 C 88 % 1023,7 hPa 0,0 l/m 0 min 0 min 0 W/m 0,0 km/h (0 Bft) 100,00 %
24.02.2020 05:42 3,9 C 3,3 C 2,8 C 88 % 1023,6 hPa 0,0 l/m 0 min 0 min 0 W/m 0,0 km/h (0 Bft) 100,00 %
24.02.2020 05:44 3,9 C 3,3 C 2,8 C 88 % 1023,6 hPa 0,0 l/m 0 min 0 min 0 W/m 6,4 km/h (2 Bft) 97,87 %
24.02.2020 05:46 3,9 C 3,9 C 2,8 C 88 % 1023,6 hPa 0,0 l/m 0 min 0 min 0 W/m 9,7 km/h (2 Bft) 100,00 %
24.02.2020 05:48 3,9 C 3,9 C 2,8 C 88 % 1023,6 hPa 0,0 l/m 0 min 0 min 0 W/m 6,4 km/h (2 Bft) 97,83 %
24.02.2020 05:50 3,9 C 3,9 C 3,3 C 88 % 1023,5 hPa 0,0 l/m 0 min 0 min 0 W/m 6,4 km/h (2 Bft) 97,87 %
24.02.2020 05:52 3,9 C 3,9 C 3,3 C 88 % 1023,3 hPa 0,0 l/m 0 min 0 min 0 W/m 9,7 km/h (2 Bft) 97,87 %
24.02.2020 05:54 4,0 C 3,9 C 3,3 C 88 % 1023,4 hPa 0,0 l/m 0 min 0 min 0 W/m 6,4 km/h (2 Bft) 95,74 %
24.02.2020 05:56 4,0 C 3,9 C 3,3 C 88 % 1023,5 hPa 0,0 l/m 0 min 0 min 0 W/m 3,2 km/h (1 Bft) 95,74 %
24.02.2020 05:58 4,0 C 3,9 C 3,3 C 88 % 1023,4 hPa 0,0 l/m 0 min 0 min 0 W/m 6,4 km/h (2 Bft) 97,87 %
24.02.2020 06:00 4,0 C 3,9 C 2,8 C 88 % 1023,5 hPa 0,0 l/m 0 min 0 min 0 W/m 3,2 km/h (1 Bft) 97,83 %
24.02.2020 06:02 4,1 C 3,9 C 2,8 C 88 % 1023,4 hPa 0,0 l/m 0 min 0 min 0 W/m 3,2 km/h (1 Bft) 97,87 %
24.02.2020 06:04 4,1 C 3,9 C 2,8 C 88 % 1023,3 hPa 0,0 l/m 0 min 0 min 0 W/m 6,4 km/h (2 Bft) 93,62 %
24.02.2020 06:08 4,1 C 3,9 C 2,8 C 88 % 1023,2 hPa 0,0 l/m 0 min 0 min 0 W/m 6,4 km/h (2 Bft) 97,87 %
24.02.2020 06:10 4,1 C 3,9 C 2,8 C 88 % 1023,2 hPa 0,0 l/m 0 min 0 min 0 W/m 3,2 km/h (1 Bft) 97,87 %
24.02.2020 06:12 4,1 C 3,9 C 2,8 C 88 % 1023,4 hPa 0,0 l/m 0 min 0 min 0 W/m 3,2 km/h (1 Bft) 97,83 %
24.02.2020 06:14 4,1 C 3,9 C 2,8 C 88 % 1023,4 hPa 0,0 l/m 0 min 0 min 0 W/m 3,2 km/h (1 Bft) 97,87 %
24.02.2020 06:16 4,1 C 3,9 C 2,8 C 88 % 1023,4 hPa 0,0 l/m 0 min 0 min 0 W/m 6,4 km/h (2 Bft) 97,87 %
24.02.2020 06:18 4,1 C 3,9 C 2,8 C 88 % 1023,3 hPa 0,0 l/m 0 min 0 min 0 W/m 3,2 km/h (1 Bft) 97,87 %
24.02.2020 06:20 4,1 C 3,9 C 3,3 C 88 % 1023,3 hPa 0,0 l/m 0 min 0 min 0 W/m 6,4 km/h (2 Bft) 97,87 %
24.02.2020 06:22 4,1 C 3,9 C 2,8 C 88 % 1023,2 hPa 0,0 l/m 0 min 0 min 0 W/m 9,7 km/h (2 Bft) 97,83 %
24.02.2020 06:24 4,1 C 3,9 C 2,8 C 88 % 1023,2 hPa 0,0 l/m 0 min 0 min 0 W/m 6,4 km/h (2 Bft) 97,87 %
24.02.2020 06:26 4,1 C 3,9 C 2,8 C 88 % 1023,2 hPa 0,0 l/m 0 min 0 min 0 W/m 6,4 km/h (2 Bft) 97,87 %
24.02.2020 06:28 4,1 C 3,9 C 2,8 C 88 % 1023,1 hPa 0,0 l/m 0 min 0 min 0 W/m 6,4 km/h (2 Bft) 97,87 %
24.02.2020 06:30 4,2 C 3,9 C 3,3 C 88 % 1023,0 hPa 0,0 l/m 0 min 0 min 0 W/m 6,4 km/h (2 Bft) 97,87 %
24.02.2020 06:32 4,2 C 3,9 C 2,8 C 88 % 1023,0 hPa 0,0 l/m 0 min 0 min 0 W/m 9,7 km/h (2 Bft) 97,87 %
24.02.2020 06:34 4,2 C 3,9 C 2,8 C 88 % 1022,9 hPa 0,0 l/m 0 min 0 min 0 W/m 9,7 km/h (2 Bft) 97,87 %
24.02.2020 06:36 4,2 C 3,9 C 2,8 C 88 % 1022,9 hPa 0,0 l/m 0 min 0 min 0 W/m 3,2 km/h (1 Bft) 97,83 %
24.02.2020 06:38 4,2 C 3,9 C 2,8 C 88 % 1022,9 hPa 0,0 l/m 0 min 0 min 0 W/m 9,7 km/h (2 Bft) 100,00 %
24.02.2020 06:40 4,2 C 3,9 C 2,8 C 88 % 1023,0 hPa 0,0 l/m 0 min 0 min 0 W/m 6,4 km/h (2 Bft) 100,00 %
24.02.2020 06:42 4,2 C 3,9 C 2,8 C 88 % 1023,0 hPa 0,0 l/m 0 min 0 min 0 W/m 6,4 km/h (2 Bft) 97,87 %
24.02.2020 06:44 4,2 C 3,9 C 3,3 C 88 % 1023,0 hPa 0,0 l/m 0 min 0 min 0 W/m 6,4 km/h (2 Bft) 97,87 %
24.02.2020 06:46 4,2 C 3,9 C 3,3 C 88 % 1022,9 hPa 0,0 l/m 0 min 0 min 0 W/m 6,4 km/h (2 Bft) 95,65 %
24.02.2020 06:48 4,2 C 3,9 C 3,3 C 88 % 1022,9 hPa 0,0 l/m 0 min 0 min 0 W/m 3,2 km/h (1 Bft) 97,87 %
24.02.2020 06:50 4,2 C 3,9 C 3,3 C 88 % 1022,9 hPa 0,0 l/m 0 min 0 min 0 W/m 6,4 km/h (2 Bft) 97,83 %
24.02.2020 06:52 4,2 C 3,9 C 3,3 C 88 % 1022,8 hPa 0,0 l/m 0 min 0 min 0 W/m 9,7 km/h (2 Bft) 97,87 %
24.02.2020 06:54 4,2 C 3,9 C 3,3 C 88 % 1022,9 hPa 0,0 l/m 0 min 0 min 0 W/m 6,4 km/h (2 Bft) 97,87 %
24.02.2020 06:56 4,2 C 3,9 C 3,3 C 88 % 1022,8 hPa 0,0 l/m 0 min 0 min 0 W/m 6,4 km/h (2 Bft) 97,87 %
24.02.2020 06:58 4,2 C 3,9 C 3,3 C 88 % 1022,7 hPa 0,0 l/m 0 min 0 min 0 W/m 6,4 km/h (2 Bft) 97,83 %
24.02.2020 07:00 4,2 C 3,9 C 3,3 C 88 % 1022,6 hPa 0,0 l/m 0 min 0 min 0 W/m 9,7 km/h (2 Bft) 93,62 %
24.02.2020 07:02 4,2 C 3,9 C 3,3 C 88 % 1022,6 hPa 0,0 l/m 0 min 0 min 0 W/m 6,4 km/h (2 Bft) 97,87 %
24.02.2020 07:04 4,2 C 3,9 C 3,3 C 88 % 1022,5 hPa 0,0 l/m 0 min 0 min 0 W/m 9,7 km/h (2 Bft) 95,74 %
24.02.2020 07:06 4,2 C 3,9 C 3,3 C 88 % 1022,4 hPa 0,0 l/m 0 min 0 min 0 W/m 9,7 km/h (2 Bft) 97,87 %
24.02.2020 07:08 4,2 C 3,9 C 3,3 C 88 % 1022,4 hPa 0,0 l/m 0 min 0 min 0 W/m 6,4 km/h (2 Bft) 97,87 %
24.02.2020 07:10 4,2 C 3,9 C 3,3 C 88 % 1022,4 hPa 0,0 l/m 0 min 0 min 0 W/m 9,7 km/h (2 Bft) 97,83 %
24.02.2020 07:12 4,2 C 3,9 C 3,3 C 88 % 1022,4 hPa 0,0 l/m 0 min 0 min 0 W/m 9,7 km/h (2 Bft) 95,74 %
24.02.2020 07:14 4,2 C 3,9 C 3,3 C 88 % 1022,4 hPa 0,0 l/m 0 min 0 min 0 W/m 6,4 km/h (2 Bft) 97,87 %
24.02.2020 07:16 4,2 C 3,9 C 3,3 C 88 % 1022,4 hPa 0,0 l/m 0 min 0 min 0 W/m 6,4 km/h (2 Bft) 97,87 %
24.02.2020 07:18 4,2 C 3,9 C 3,3 C 88 % 1022,4 hPa 0,0 l/m 0 min 0 min 0 W/m 3,2 km/h (1 Bft) 97,87 %
24.02.2020 07:20 4,2 C 3,9 C 3,3 C 88 % 1022,4 hPa 0,0 l/m 0 min 0 min 0 W/m 9,7 km/h (2 Bft) 95,65 %
24.02.2020 07:22 4,3 C 3,9 C 3,3 C 88 % 1022,3 hPa 0,0 l/m 0 min 0 min 0 W/m 6,4 km/h (2 Bft) 97,87 %
24.02.2020 07:24 4,3 C 3,9 C 3,3 C 88 % 1022,2 hPa 0,0 l/m 0 min 0 min 0 W/m 6,4 km/h (2 Bft) 100,00 %
24.02.2020 07:26 4,3 C 3,9 C 3,3 C 88 % 1022,2 hPa 0,0 l/m 0 min 0 min 0 W/m 9,7 km/h (2 Bft) 97,87 %
24.02.2020 07:28 4,3 C 3,9 C 3,3 C 88 % 1022,2 hPa 0,0 l/m 0 min 0 min 0 W/m 6,4 km/h (2 Bft) 100,00 %
24.02.2020 07:30 4,3 C 3,9 C 3,3 C 88 % 1022,3 hPa 0,0 l/m 0 min 0 min 0 W/m 12,9 km/h (3 Bft) 100,00 %
24.02.2020 07:32 4,3 C 3,9 C 3,3 C 88 % 1022,4 hPa 0,0 l/m 0 min 0 min 0 W/m 9,7 km/h (2 Bft) 100,00 %
24.02.2020 07:34 4,3 C 3,9 C 3,3 C 88 % 1022,5 hPa 0,0 l/m 0 min 0 min 0 W/m 9,7 km/h (2 Bft) 97,87 %
24.02.2020 07:36 4,3 C 3,9 C 3,3 C 88 % 1022,5 hPa 0,0 l/m 0 min 0 min 0 W/m 16,1 km/h (3 Bft) 95,74 %
24.02.2020 07:38 4,3 C 3,9 C 3,3 C 88 % 1022,4 hPa 0,0 l/m 0 min 0 min 0 W/m 12,9 km/h (3 Bft) 97,87 %
24.02.2020 07:40 4,3 C 3,9 C 3,3 C 88 % 1022,5 hPa 0,0 l/m 0 min 0 min 0 W/m 12,9 km/h (3 Bft) 95,74 %
24.02.2020 07:42 4,3 C 3,9 C 3,3 C 88 % 1022,5 hPa 0,0 l/m 0 min 0 min 0 W/m 12,9 km/h (3 Bft) 97,87 %
24.02.2020 07:44 4,3 C 3,9 C 3,3 C 88 % 1022,4 hPa 0,0 l/m 0 min 0 min 2 W/m 6,4 km/h (2 Bft) 97,83 %
24.02.2020 07:46 4,3 C 3,9 C 3,3 C 88 % 1022,3 hPa 0,0 l/m 0 min 0 min 5 W/m 12,9 km/h (3 Bft) 97,87 %
24.02.2020 07:48 4,3 C 3,9 C 3,3 C 88 % 1022,2 hPa 0,0 l/m 0 min 0 min 7 W/m 12,9 km/h (3 Bft) 97,87 %
24.02.2020 07:50 4,3 C 3,9 C 3,3 C 88 % 1022,3 hPa 0,0 l/m 0 min 0 min 7 W/m 6,4 km/h (2 Bft) 97,87 %
24.02.2020 07:52 4,3 C 3,9 C 3,3 C 88 % 1022,2 hPa 0,0 l/m 0 min 0 min 7 W/m 12,9 km/h (3 Bft) 95,74 %
24.02.2020 07:54 4,3 C 3,9 C 3,3 C 88 % 1022,2 hPa 0,0 l/m 0 min 0 min 7 W/m 12,9 km/h (3 Bft) 95,74 %
24.02.2020 07:56 4,4 C 3,9 C 3,3 C 88 % 1022,2 hPa 0,0 l/m 0 min 0 min 8 W/m 6,4 km/h (2 Bft) 95,65 %
24.02.2020 07:58 4,4 C 3,9 C 3,3 C 88 % 1022,1 hPa 0,0 l/m 0 min 0 min 9 W/m 3,2 km/h (1 Bft) 97,87 %
24.02.2020 08:00 4,4 C 3,9 C 3,3 C 88 % 1022,1 hPa 0,0 l/m 0 min 0 min 10 W/m 6,4 km/h (2 Bft) 97,87 %
24.02.2020 08:02 4,4 C 3,9 C 3,3 C 88 % 1022,1 hPa 0,0 l/m 0 min 0 min 12 W/m 12,9 km/h (3 Bft) 97,87 %
24.02.2020 08:04 4,4 C 3,9 C 3,3 C 88 % 1022,1 hPa 0,0 l/m 0 min 0 min 15 W/m 12,9 km/h (3 Bft) 97,87 %
24.02.2020 08:06 4,4 C 3,9 C 3,3 C 88 % 1021,9 hPa 0,0 l/m 0 min 0 min 18 W/m 6,4 km/h (2 Bft) 91,49 %
24.02.2020 08:08 4,4 C 3,9 C 3,3 C 88 % 1021,9 hPa 0,0 l/m 0 min 0 min 20 W/m 6,4 km/h (2 Bft) 97,83 %
24.02.2020 08:10 4,4 C 3,9 C 3,3 C 88 % 1021,9 hPa 0,0 l/m 0 min 0 min 21 W/m 6,4 km/h (2 Bft) 95,74 %
24.02.2020 08:12 4,4 C 3,9 C 3,3 C 88 % 1021,9 hPa 0,0 l/m 0 min 0 min 19 W/m 12,9 km/h (3 Bft) 97,87 %
24.02.2020 08:14 4,4 C 3,9 C 3,3 C 88 % 1021,7 hPa 0,0 l/m 0 min 0 min 21 W/m 16,1 km/h (3 Bft) 97,87 %
24.02.2020 08:16 4,4 C 3,9 C 3,3 C 88 % 1021,6 hPa 0,0 l/m 0 min 0 min 22 W/m 12,9 km/h (3 Bft) 95,74 %
24.02.2020 08:18 4,5 C 3,9 C 3,3 C 88 % 1021,6 hPa 0,0 l/m 0 min 0 min 24 W/m 12,9 km/h (3 Bft) 97,83 %
24.02.2020 08:20 4,5 C 3,9 C 3,3 C 88 % 1021,7 hPa 0,0 l/m 0 min 0 min 23 W/m 12,9 km/h (3 Bft) 95,74 %
24.02.2020 08:22 4,5 C 3,9 C 3,3 C 88 % 1021,6 hPa 0,0 l/m 0 min 0 min 23 W/m 12,9 km/h (3 Bft) 95,74 %
24.02.2020 08:24 4,5 C 3,9 C 3,3 C 88 % 1021,4 hPa 0,0 l/m 0 min 0 min 26 W/m 16,1 km/h (3 Bft) 95,74 %
24.02.2020 08:26 4,5 C 3,9 C 3,3 C 89 % 1021,4 hPa 0,0 l/m 0 min 0 min 26 W/m 6,4 km/h (2 Bft) 100,00 %
24.02.2020 08:28 4,5 C 4,4 C 3,3 C 89 % 1021,4 hPa 0,0 l/m 0 min 0 min 25 W/m 16,1 km/h (3 Bft) 100,00 %
24.02.2020 08:30 4,5 C 4,4 C 3,3 C 89 % 1021,3 hPa 0,0 l/m 0 min 0 min 26 W/m 16,1 km/h (3 Bft) 100,00 %
24.02.2020 08:32 4,6 C 4,4 C 3,9 C 89 % 1021,2 hPa 0,0 l/m 0 min 0 min 30 W/m 19,3 km/h (3 Bft) 97,87 %
24.02.2020 08:34 4,6 C 4,4 C 3,9 C 89 % 1021,2 hPa 0,0 l/m 0 min 0 min 33 W/m 19,3 km/h (3 Bft) 97,87 %
24.02.2020 08:36 4,6 C 4,4 C 3,9 C 89 % 1021,2 hPa 0,0 l/m 0 min 0 min 33 W/m 16,1 km/h (3 Bft) 97,87 %
24.02.2020 08:38 4,6 C 4,4 C 3,9 C 89 % 1021,2 hPa 0,0 l/m 0 min 0 min 32 W/m 16,1 km/h (3 Bft) 97,87 %
24.02.2020 08:40 4,6 C 4,4 C 3,9 C 89 % 1021,2 hPa 0,0 l/m 0 min 0 min 32 W/m 16,1 km/h (3 Bft) 97,87 %
24.02.2020 08:42 4,6 C 4,4 C 3,9 C 89 % 1021,1 hPa 0,0 l/m 0 min 0 min 34 W/m 16,1 km/h (3 Bft) 97,83 %
24.02.2020 08:44 4,7 C 4,4 C 3,9 C 89 % 1021,1 hPa 0,0 l/m 0 min 0 min 35 W/m 16,1 km/h (3 Bft) 97,87 %
24.02.2020 08:46 4,7 C 4,4 C 3,9 C 89 % 1021,0 hPa 0,0 l/m 0 min 0 min 33 W/m 12,9 km/h (3 Bft) 97,87 %
24.02.2020 08:48 4,7 C 4,4 C 3,9 C 89 % 1021,0 hPa 0,0 l/m 0 min 0 min 30 W/m 6,4 km/h (2 Bft) 95,74 %
24.02.2020 08:50 4,7 C 4,4 C 3,9 C 89 % 1021,0 hPa 0,0 l/m 0 min 0 min 29 W/m 16,1 km/h (3 Bft) 95,74 %
24.02.2020 08:52 4,7 C 4,4 C 3,9 C 89 % 1020,8 hPa 0,0 l/m 0 min 0 min 34 W/m 12,9 km/h (3 Bft) 97,87 %
24.02.2020 08:54 4,7 C 4,4 C 3,9 C 89 % 1020,9 hPa 0,0 l/m 0 min 0 min 38 W/m 19,3 km/h (3 Bft) 95,65 %
24.02.2020 08:56 4,8 C 4,4 C 3,9 C 89 % 1020,7 hPa 0,0 l/m 0 min 0 min 40 W/m 19,3 km/h (3 Bft) 97,87 %
24.02.2020 08:58 4,8 C 4,4 C 3,9 C 89 % 1020,7 hPa 0,0 l/m 0 min 0 min 46 W/m 16,1 km/h (3 Bft) 95,74 %
24.02.2020 09:00 4,8 C 4,4 C 3,9 C 89 % 1020,7 hPa 0,0 l/m 0 min 0 min 47 W/m 16,1 km/h (3 Bft) 97,87 %
24.02.2020 09:02 4,8 C 4,4 C 3,9 C 89 % 1020,6 hPa 0,0 l/m 0 min 0 min 45 W/m 16,1 km/h (3 Bft) 97,87 %
24.02.2020 09:04 4,8 C 4,4 C 3,9 C 89 % 1020,6 hPa 0,0 l/m 0 min 0 min 42 W/m 12,9 km/h (3 Bft) 95,74 %
24.02.2020 09:06 4,9 C 4,4 C 3,9 C 89 % 1020,6 hPa 0,0 l/m 0 min 0 min 35 W/m 19,3 km/h (3 Bft) 93,48 %
24.02.2020 09:08 4,9 C 4,4 C 3,9 C 89 % 1020,6 hPa 0,0 l/m 0 min 0 min 30 W/m 19,3 km/h (3 Bft) 95,74 %
24.02.2020 09:10 4,9 C 4,4 C 3,9 C 89 % 1020,4 hPa 0,0 l/m 0 min 0 min 35 W/m 22,5 km/h (4 Bft) 95,74 %
24.02.2020 09:12 4,9 C 4,4 C 3,9 C 89 % 1020,4 hPa 0,0 l/m 0 min 0 min 44 W/m 16,1 km/h (3 Bft) 95,74 %
24.02.2020 09:14 4,9 C 5,0 C 4,4 C 89 % 1020,5 hPa 0,0 l/m 0 min 0 min 47 W/m 19,3 km/h (3 Bft) 93,62 %
24.02.2020 09:16 5,0 C 5,0 C 4,4 C 89 % 1020,5 hPa 0,0 l/m 0 min 0 min 47 W/m 16,1 km/h (3 Bft) 95,65 %
24.02.2020 09:18 5,0 C 5,0 C 4,4 C 89 % 1020,4 hPa 0,0 l/m 0 min 0 min 48 W/m 16,1 km/h (3 Bft) 95,74 %
24.02.2020 09:20 5,0 C 5,0 C 4,4 C 89 % 1020,3 hPa 0,0 l/m 0 min 0 min 48 W/m 16,1 km/h (3 Bft) 93,62 %
24.02.2020 09:22 5,1 C 5,0 C 4,4 C 89 % 1020,2 hPa 0,0 l/m 0 min 0 min 45 W/m 16,1 km/h (3 Bft) 95,74 %
24.02.2020 09:24 5,1 C 5,0 C 4,4 C 89 % 1020,3 hPa 0,0 l/m 0 min 0 min 45 W/m 16,1 km/h (3 Bft) 97,87 %
24.02.2020 09:26 5,1 C 5,0 C 4,4 C 89 % 1020,2 hPa 0,0 l/m 0 min 2 min 47 W/m 16,1 km/h (3 Bft) 97,87 %
24.02.2020 09:28 5,1 C 5,0 C 4,4 C 89 % 1020,0 hPa 0,0 l/m 0 min 0 min 55 W/m 19,3 km/h (3 Bft) 97,83 %
24.02.2020 09:30 5,1 C 5,0 C 4,4 C 89 % 1019,9 hPa 0,0 l/m 0 min 0 min 68 W/m 12,9 km/h (3 Bft) 97,87 %
24.02.2020 09:32 5,1 C 5,0 C 4,4 C 89 % 1019,9 hPa 0,0 l/m 0 min 0 min 80 W/m 19,3 km/h (3 Bft) 97,87 %
24.02.2020 09:34 5,2 C 5,0 C 4,4 C 89 % 1019,8 hPa 0,0 l/m 0 min 0 min 87 W/m 12,9 km/h (3 Bft) 95,74 %
24.02.2020 09:36 5,2 C 5,0 C 4,4 C 89 % 1019,8 hPa 0,0 l/m 0 min 2 min 76 W/m 16,1 km/h (3 Bft) 95,74 %
24.02.2020 09:38 5,2 C 4,4 C 4,4 C 89 % 1019,7 hPa 0,0 l/m 0 min 2 min 57 W/m 22,5 km/h (4 Bft) 97,87 %
24.02.2020 09:40 5,3 C 4,4 C 3,9 C 89 % 1019,7 hPa 0,0 l/m 0 min 0 min 49 W/m 16,1 km/h (3 Bft) 95,65 %
24.02.2020 09:42 5,3 C 4,4 C 3,9 C 89 % 1019,6 hPa 0,0 l/m 0 min 2 min 46 W/m 19,3 km/h (3 Bft) 95,74 %
24.02.2020 09:44 5,3 C 4,4 C 3,9 C 89 % 1019,7 hPa 0,0 l/m 0 min 2 min 48 W/m 12,9 km/h (3 Bft) 100,00 %
24.02.2020 09:46 5,3 C 4,4 C 3,9 C 89 % 1019,7 hPa 0,0 l/m 0 min 2 min 49 W/m 16,1 km/h (3 Bft) 100,00 %
24.02.2020 09:48 5,3 C 4,4 C 3,9 C 89 % 1019,6 hPa 0,0 l/m 0 min 2 min 45 W/m 22,5 km/h (4 Bft) 97,87 %
24.02.2020 09:50 5,3 C 3,9 C 3,3 C 89 % 1019,6 hPa 0,0 l/m 0 min 2 min 40 W/m 16,1 km/h (3 Bft) 97,87 %
24.02.2020 09:52 5,3 C 3,9 C 3,3 C 90 % 1019,5 hPa 0,2 l/m 0 min 2 min 41 W/m 19,3 km/h (3 Bft) 100,00 %
24.02.2020 09:54 5,3 C 3,9 C 3,3 C 90 % 1019,4 hPa 0,0 l/m 0 min 2 min 43 W/m 22,5 km/h (4 Bft) 100,00 %
24.02.2020 09:56 5,3 C 3,3 C 3,3 C 90 % 1019,1 hPa 0,0 l/m 0 min 2 min 51 W/m 19,3 km/h (3 Bft) 97,87 %
24.02.2020 09:58 5,3 C 3,9 C 3,3 C 90 % 1019,1 hPa 0,0 l/m 0 min 2 min 72 W/m 19,3 km/h (3 Bft) 100,00 %
24.02.2020 10:00 5,3 C 3,9 C 3,3 C 90 % 1019,0 hPa 0,2 l/m 0 min 2 min 98 W/m 19,3 km/h (3 Bft) 100,00 %
24.02.2020 10:02 5,3 C 3,9 C 3,3 C 90 % 1018,9 hPa 0,0 l/m 0 min 2 min 108 W/m 16,1 km/h (3 Bft) 97,83 %
24.02.2020 10:04 5,3 C 3,9 C 3,3 C 91 % 1018,9 hPa 0,2 l/m 0 min 2 min 100 W/m 22,5 km/h (4 Bft) 100,00 %
24.02.2020 10:06 5,3 C 3,9 C 3,3 C 91 % 1018,9 hPa 0,0 l/m 0 min 2 min 90 W/m 16,1 km/h (3 Bft) 97,87 %
24.02.2020 10:08 5,3 C 3,9 C 3,3 C 91 % 1019,0 hPa 0,0 l/m 0 min 2 min 64 W/m 22,5 km/h (4 Bft) 93,62 %
24.02.2020 10:10 5,3 C 3,9 C 3,3 C 91 % 1018,9 hPa 0,0 l/m 0 min 2 min 64 W/m 22,5 km/h (4 Bft) 100,00 %
24.02.2020 10:12 5,3 C 3,9 C 3,3 C 91 % 1019,0 hPa 0,0 l/m 0 min 2 min 72 W/m 22,5 km/h (4 Bft) 100,00 %
24.02.2020 10:14 5,2 C 3,9 C 3,3 C 92 % 1019,0 hPa 0,0 l/m 0 min 2 min 66 W/m 19,3 km/h (3 Bft) 100,00 %
24.02.2020 10:16 5,2 C 3,9 C 3,3 C 92 % 1019,0 hPa 0,0 l/m 0 min 2 min 65 W/m 22,5 km/h (4 Bft) 100,00 %
24.02.2020 10:18 5,2 C 3,9 C 3,3 C 92 % 1018,9 hPa 0,2 l/m 0 min 2 min 70 W/m 22,5 km/h (4 Bft) 100,00 %
24.02.2020 10:20 5,2 C 3,9 C 3,3 C 92 % 1018,9 hPa 0,0 l/m 0 min 2 min 72 W/m 19,3 km/h (3 Bft) 100,00 %
24.02.2020 10:22 5,2 C 3,9 C 3,3 C 92 % 1018,9 hPa 0,0 l/m 0 min 2 min 72 W/m 22,5 km/h (4 Bft) 100,00 %
24.02.2020 10:24 5,1 C 3,9 C 3,3 C 92 % 1018,8 hPa 0,0 l/m 0 min 2 min 78 W/m 16,1 km/h (3 Bft) 100,00 %
24.02.2020 10:26 5,1 C 3,9 C 3,3 C 92 % 1018,8 hPa 0,0 l/m 0 min 2 min 74 W/m 12,9 km/h (3 Bft) 97,87 %
24.02.2020 10:28 5,1 C 3,9 C 3,3 C 93 % 1018,6 hPa 0,0 l/m 0 min 2 min 77 W/m 16,1 km/h (3 Bft) 95,65 %
24.02.2020 10:30 5,1 C 3,9 C 3,3 C 93 % 1018,6 hPa 0,2 l/m 0 min 2 min 72 W/m 25,7 km/h (4 Bft) 100,00 %
24.02.2020 10:32 5,1 C 3,9 C 3,3 C 93 % 1018,7 hPa 0,0 l/m 0 min 2 min 59 W/m 16,1 km/h (3 Bft) 97,87 %
24.02.2020 10:34 5,1 C 3,9 C 3,3 C 93 % 1018,7 hPa 0,0 l/m 0 min 2 min 54 W/m 19,3 km/h (3 Bft) 100,00 %
24.02.2020 10:36 5,1 C 3,9 C 3,3 C 93 % 1018,6 hPa 0,0 l/m 0 min 2 min 55 W/m 16,1 km/h (3 Bft) 97,87 %
24.02.2020 10:38 5,1 C 3,9 C 3,3 C 93 % 1018,5 hPa 0,0 l/m 0 min 2 min 61 W/m 22,5 km/h (4 Bft) 97,83 %
24.02.2020 10:40 5,1 C 3,9 C 3,3 C 93 % 1018,4 hPa 0,0 l/m 0 min 0 min 67 W/m 19,3 km/h (3 Bft) 95,74 %
24.02.2020 10:42 5,1 C 3,9 C 3,3 C 93 % 1018,3 hPa 0,0 l/m 0 min 0 min 68 W/m 16,1 km/h (3 Bft) 97,87 %
24.02.2020 10:44 5,1 C 3,9 C 3,3 C 93 % 1018,3 hPa 0,0 l/m 0 min 0 min 60 W/m 22,5 km/h (4 Bft) 97,87 %
24.02.2020 10:46 5,1 C 3,9 C 3,3 C 94 % 1018,2 hPa 0,0 l/m 0 min 0 min 55 W/m 16,1 km/h (3 Bft) 93,62 %
24.02.2020 10:48 5,1 C 3,9 C 3,3 C 94 % 1018,2 hPa 0,0 l/m 0 min 2 min 48 W/m 22,5 km/h (4 Bft) 97,87 %
24.02.2020 10:50 5,1 C 3,9 C 3,3 C 94 % 1018,1 hPa 0,0 l/m 0 min 2 min 52 W/m 22,5 km/h (4 Bft) 97,83 %
24.02.2020 10:52 5,1 C 3,9 C 3,3 C 94 % 1018,0 hPa 0,2 l/m 0 min 0 min 58 W/m 22,5 km/h (4 Bft) 97,87 %
24.02.2020 10:54 5,1 C 3,9 C 3,3 C 94 % 1017,8 hPa 0,0 l/m 0 min 0 min 63 W/m 32,2 km/h (5 Bft) 97,87 %
24.02.2020 10:56 5,1 C 3,9 C 3,3 C 94 % 1017,5 hPa 0,0 l/m 0 min 0 min 60 W/m 25,7 km/h (4 Bft) 97,87 %
24.02.2020 10:58 5,1 C 3,9 C 3,3 C 94 % 1017,5 hPa 0,0 l/m 0 min 0 min 52 W/m 22,5 km/h (4 Bft) 97,87 %
24.02.2020 11:00 5,1 C 3,9 C 3,9 C 94 % 1017,2 hPa 0,0 l/m 0 min 0 min 84 W/m 25,7 km/h (4 Bft) 97,87 %
24.02.2020 11:02 5,1 C 3,9 C 3,9 C 94 % 1017,2 hPa 0,0 l/m 0 min 2 min 81 W/m 22,5 km/h (4 Bft) 95,65 %
24.02.2020 11:04 5,1 C 3,9 C 3,9 C 95 % 1017,4 hPa 0,0 l/m 0 min 2 min 51 W/m 22,5 km/h (4 Bft) 97,87 %
24.02.2020 11:06 5,1 C 3,9 C 3,9 C 95 % 1017,3 hPa 0,0 l/m 0 min 0 min 38 W/m 22,5 km/h (4 Bft) 97,87 %
24.02.2020 11:08 5,1 C 3,9 C 3,9 C 95 % 1017,3 hPa 0,0 l/m 0 min 0 min 33 W/m 25,7 km/h (4 Bft) 97,87 %
24.02.2020 11:10 5,1 C 3,9 C 3,9 C 95 % 1017,1 hPa 0,0 l/m 0 min 0 min 36 W/m 25,7 km/h (4 Bft) 95,74 %
24.02.2020 11:12 5,1 C 3,9 C 3,9 C 95 % 1016,9 hPa 0,0 l/m 0 min 2 min 42 W/m 35,4 km/h (5 Bft) 97,83 %
24.02.2020 11:14 5,2 C 4,4 C 3,9 C 95 % 1016,8 hPa 0,0 l/m 0 min 0 min 57 W/m 25,7 km/h (4 Bft) 97,87 %
24.02.2020 11:16 5,2 C 4,4 C 3,9 C 95 % 1016,6 hPa 0,0 l/m 0 min 0 min 61 W/m 25,7 km/h (4 Bft) 97,87 %
24.02.2020 11:18 5,2 C 4,4 C 3,9 C 96 % 1016,6 hPa 0,0 l/m 0 min 0 min 58 W/m 35,4 km/h (5 Bft) 95,74 %
24.02.2020 11:20 5,2 C 4,4 C 3,9 C 96 % 1016,5 hPa 0,0 l/m 0 min 2 min 52 W/m 29,0 km/h (5 Bft) 95,74 %
24.02.2020 11:22 5,2 C 4,4 C 3,9 C 96 % 1016,3 hPa 0,2 l/m 0 min 0 min 51 W/m 32,2 km/h (5 Bft) 93,62 %
24.02.2020 11:24 5,2 C 4,4 C 3,9 C 96 % 1016,1 hPa 0,0 l/m 0 min 2 min 59 W/m 22,5 km/h (4 Bft) 95,65 %
24.02.2020 11:26 5,2 C 4,4 C 3,9 C 96 % 1016,2 hPa 0,0 l/m 0 min 0 min 63 W/m 32,2 km/h (5 Bft) 93,62 %
24.02.2020 11:28 5,3 C 4,4 C 3,9 C 96 % 1016,0 hPa 0,0 l/m 0 min 0 min 73 W/m 25,7 km/h (4 Bft) 95,74 %
24.02.2020 11:30 5,3 C 4,4 C 3,9 C 96 % 1015,9 hPa 0,0 l/m 0 min 2 min 65 W/m 38,6 km/h (5 Bft) 95,74 %
24.02.2020 11:32 5,3 C 4,4 C 3,9 C 96 % 1016,0 hPa 0,0 l/m 0 min 2 min 54 W/m 38,6 km/h (5 Bft) 91,49 %
24.02.2020 11:34 5,3 C 4,4 C 3,9 C 96 % 1016,0 hPa 0,0 l/m 0 min 0 min 47 W/m 25,7 km/h (4 Bft) 95,74 %
24.02.2020 11:36 5,3 C 4,4 C 3,9 C 96 % 1015,8 hPa 0,0 l/m 0 min 2 min 55 W/m 25,7 km/h (4 Bft) 93,48 %
24.02.2020 11:38 5,3 C 4,4 C 3,9 C 96 % 1015,7 hPa 0,0 l/m 0 min 0 min 61 W/m 25,7 km/h (4 Bft) 93,62 %
24.02.2020 11:40 5,3 C 4,4 C 3,9 C 97 % 1015,7 hPa 0,0 l/m 0 min 0 min 49 W/m 29,0 km/h (5 Bft) 93,62 %
24.02.2020 11:42 5,3 C 4,4 C 3,9 C 97 % 1015,8 hPa 0,0 l/m 0 min 0 min 46 W/m 32,2 km/h (5 Bft) 95,74 %
24.02.2020 11:44 5,3 C 4,4 C 3,9 C 97 % 1015,7 hPa 0,0 l/m 0 min 0 min 59 W/m 25,7 km/h (4 Bft) 95,74 %
24.02.2020 11:46 5,3 C 4,4 C 3,9 C 97 % 1015,6 hPa 0,2 l/m 0 min 0 min 60 W/m 25,7 km/h (4 Bft) 93,62 %
24.02.2020 11:48 5,4 C 4,4 C 3,9 C 97 % 1015,5 hPa 0,0 l/m 0 min 0 min 59 W/m 29,0 km/h (5 Bft) 95,65 %
24.02.2020 11:50 5,4 C 4,4 C 4,4 C 97 % 1015,5 hPa 0,0 l/m 0 min 0 min 53 W/m 25,7 km/h (4 Bft) 95,74 %
24.02.2020 11:52 5,4 C 4,4 C 4,4 C 97 % 1015,4 hPa 0,0 l/m 0 min 0 min 54 W/m 29,0 km/h (5 Bft) 93,62 %
24.02.2020 11:54 5,4 C 4,4 C 4,4 C 97 % 1015,2 hPa 0,0 l/m 0 min 0 min 58 W/m 29,0 km/h (5 Bft) 95,74 %
24.02.2020 11:56 5,5 C 4,4 C 4,4 C 97 % 1015,1 hPa 0,0 l/m 0 min 0 min 60 W/m 35,4 km/h (5 Bft) 95,74 %
24.02.2020 11:58 5,5 C 4,4 C 4,4 C 97 % 1015,1 hPa 0,0 l/m 0 min 0 min 52 W/m 22,5 km/h (4 Bft) 93,62 %
24.02.2020 12:00 5,5 C 4,4 C 4,4 C 97 % 1014,9 hPa 0,0 l/m 0 min 0 min 58 W/m 41,8 km/h (6 Bft) 95,65 %
24.02.2020 12:02 5,5 C 5,0 C 4,4 C 97 % 1014,9 hPa 0,0 l/m 0 min 2 min 58 W/m 29,0 km/h (5 Bft) 95,74 %
24.02.2020 12:04 5,6 C 5,0 C 4,4 C 97 % 1014,8 hPa 0,0 l/m 0 min 0 min 56 W/m 25,7 km/h (4 Bft) 95,74 %
24.02.2020 12:08 5,6 C 5,0 C 4,4 C 97 % 1014,6 hPa 0,0 l/m 0 min 0 min 56 W/m 41,8 km/h (6 Bft) 96,81 %
24.02.2020 12:10 5,6 C 5,0 C 4,4 C 97 % 1014,6 hPa 0,0 l/m 0 min 0 min 59 W/m 32,2 km/h (5 Bft) 97,83 %
24.02.2020 12:12 5,6 C 5,0 C 4,4 C 97 % 1014,6 hPa 0,0 l/m 0 min 0 min 55 W/m 25,7 km/h (4 Bft) 97,87 %
24.02.2020 12:14 5,6 C 5,0 C 4,4 C 98 % 1014,5 hPa 0,0 l/m 0 min 0 min 52 W/m 35,4 km/h (5 Bft) 97,87 %
24.02.2020 12:16 5,6 C 5,0 C 4,4 C 98 % 1014,5 hPa 0,0 l/m 0 min 0 min 50 W/m 29,0 km/h (5 Bft) 100,00 %
24.02.2020 12:18 5,6 C 5,0 C 4,4 C 98 % 1014,5 hPa 0,0 l/m 0 min 0 min 53 W/m 29,0 km/h (5 Bft) 100,00 %
24.02.2020 12:20 5,6 C 5,0 C 4,4 C 98 % 1014,4 hPa 0,0 l/m 0 min 0 min 51 W/m 22,5 km/h (4 Bft) 100,00 %
24.02.2020 12:22 5,7 C 5,0 C 4,4 C 98 % 1014,3 hPa 0,0 l/m 0 min 0 min 52 W/m 29,0 km/h (5 Bft) 97,83 %
24.02.2020 12:24 5,7 C 5,0 C 4,4 C 98 % 1014,3 hPa 0,0 l/m 0 min 0 min 53 W/m 35,4 km/h (5 Bft) 100,00 %
24.02.2020 12:26 5,7 C 5,0 C 4,4 C 98 % 1014,2 hPa 0,0 l/m 0 min 0 min 52 W/m 38,6 km/h (5 Bft) 100,00 %
24.02.2020 12:28 5,7 C 5,0 C 4,4 C 98 % 1014,1 hPa 0,0 l/m 0 min 0 min 53 W/m 35,4 km/h (5 Bft) 100,00 %
24.02.2020 12:30 5,7 C 5,0 C 4,4 C 98 % 1014,2 hPa 0,0 l/m 0 min 0 min 53 W/m 25,7 km/h (4 Bft) 100,00 %
24.02.2020 12:32 5,8 C 5,0 C 4,4 C 98 % 1014,1 hPa 0,0 l/m 0 min 0 min 56 W/m 25,7 km/h (4 Bft) 100,00 %
24.02.2020 12:34 5,8 C 5,0 C 4,4 C 98 % 1014,0 hPa 0,0 l/m 0 min 0 min 53 W/m 22,5 km/h (4 Bft) 97,83 %
24.02.2020 12:36 5,8 C 5,0 C 5,0 C 98 % 1013,9 hPa 0,0 l/m 0 min 0 min 58 W/m 25,7 km/h (4 Bft) 97,87 %
24.02.2020 12:38 5,8 C 5,6 C 5,0 C 98 % 1013,9 hPa 0,0 l/m 0 min 0 min 57 W/m 19,3 km/h (3 Bft) 100,00 %
24.02.2020 12:40 5,8 C 5,0 C 5,0 C 98 % 1013,8 hPa 0,0 l/m 0 min 0 min 57 W/m 25,7 km/h (4 Bft) 100,00 %
24.02.2020 12:42 5,8 C 5,0 C 5,0 C 98 % 1013,7 hPa 0,0 l/m 0 min 0 min 55 W/m 29,0 km/h (5 Bft) 100,00 %
24.02.2020 12:44 5,9 C 5,0 C 5,0 C 98 % 1013,5 hPa 0,0 l/m 0 min 0 min 60 W/m 35,4 km/h (5 Bft) 100,00 %
24.02.2020 12:46 5,9 C 5,6 C 5,0 C 98 % 1013,5 hPa 0,0 l/m 0 min 0 min 56 W/m 29,0 km/h (5 Bft) 100,00 %
24.02.2020 12:48 5,9 C 5,0 C 5,0 C 98 % 1013,4 hPa 0,0 l/m 0 min 0 min 46 W/m 29,0 km/h (5 Bft) 97,87 %
24.02.2020 12:50 5,9 C 5,6 C 5,0 C 98 % 1013,3 hPa 0,0 l/m 0 min 0 min 45 W/m 29,0 km/h (5 Bft) 100,00 %
24.02.2020 12:52 5,9 C 5,6 C 5,0 C 98 % 1013,3 hPa 0,0 l/m 0 min 0 min 43 W/m 29,0 km/h (5 Bft) 100,00 %
24.02.2020 12:54 5,9 C 5,6 C 5,0 C 98 % 1013,3 hPa 0,0 l/m 0 min 0 min 41 W/m 29,0 km/h (5 Bft) 55,56 %
24.02.2020 12:56 5,9 C 5,6 C 5,0 C 98 % 1013,3 hPa 0,0 l/m 0 min 0 min 41 W/m 35,4 km/h (5 Bft) 100,00 %
24.02.2020 12:58 6,0 C 5,6 C 5,0 C 98 % 1013,3 hPa 0,0 l/m 0 min 0 min 38 W/m 29,0 km/h (5 Bft) 100,00 %
24.02.2020 13:00 6,0 C 5,6 C 5,0 C 98 % 1013,2 hPa 0,0 l/m 0 min 0 min 37 W/m 22,5 km/h (4 Bft) 100,00 %
24.02.2020 13:02 6,0 C 5,6 C 5,0 C 98 % 1013,2 hPa 0,0 l/m 0 min 0 min 41 W/m 22,5 km/h (4 Bft) 100,00 %
24.02.2020 13:04 6,1 C 5,6 C 5,0 C 98 % 1013,1 hPa 0,0 l/m 0 min 0 min 44 W/m 22,5 km/h (4 Bft) 100,00 %
24.02.2020 13:06 6,1 C 5,6 C 5,0 C 98 % 1013,0 hPa 0,0 l/m 0 min 0 min 47 W/m 25,7 km/h (4 Bft) 100,00 %
24.02.2020 13:08 6,1 C 5,6 C 5,0 C 98 % 1013,0 hPa 0,0 l/m 0 min 0 min 41 W/m 25,7 km/h (4 Bft) 100,00 %
24.02.2020 13:10 6,1 C 5,6 C 5,0 C 98 % 1012,9 hPa 0,0 l/m 0 min 0 min 38 W/m 22,5 km/h (4 Bft) 100,00 %
24.02.2020 13:12 6,1 C 5,6 C 5,0 C 98 % 1012,8 hPa 0,0 l/m 0 min 0 min 39 W/m 32,2 km/h (5 Bft) 100,00 %
24.02.2020 13:14 6,1 C 5,6 C 5,0 C 98 % 1012,7 hPa 0,0 l/m 0 min 0 min 42 W/m 22,5 km/h (4 Bft) 100,00 %
24.02.2020 13:16 6,2 C 5,6 C 5,0 C 98 % 1012,6 hPa 0,0 l/m 0 min 0 min 44 W/m 35,4 km/h (5 Bft) 97,87 %
24.02.2020 13:18 6,2 C 5,6 C 5,0 C 98 % 1012,6 hPa 0,0 l/m 0 min 0 min 45 W/m 22,5 km/h (4 Bft) 100,00 %
24.02.2020 13:20 6,2 C 5,6 C 5,0 C 98 % 1012,5 hPa 0,0 l/m 0 min 0 min 50 W/m 29,0 km/h (5 Bft) 100,00 %
24.02.2020 13:22 6,3 C 5,6 C 5,0 C 98 % 1012,5 hPa 0,0 l/m 0 min 0 min 51 W/m 29,0 km/h (5 Bft) 100,00 %
24.02.2020 13:24 6,3 C 5,6 C 5,0 C 98 % 1012,4 hPa 0,0 l/m 0 min 0 min 54 W/m 25,7 km/h (4 Bft) 97,87 %
24.02.2020 13:26 6,3 C 5,6 C 5,0 C 98 % 1012,3 hPa 0,0 l/m 0 min 0 min 54 W/m 29,0 km/h (5 Bft) 97,87 %
24.02.2020 13:28 6,4 C 5,6 C 5,6 C 98 % 1012,2 hPa 0,0 l/m 0 min 0 min 58 W/m 29,0 km/h (5 Bft) 100,00 %
24.02.2020 13:30 6,4 C 5,6 C 5,6 C 98 % 1012,1 hPa 0,0 l/m 0 min 0 min 60 W/m 22,5 km/h (4 Bft) 97,87 %
24.02.2020 13:32 6,4 C 6,1 C 5,6 C 98 % 1012,0 hPa 0,0 l/m 0 min 0 min 58 W/m 19,3 km/h (3 Bft) 95,65 %
24.02.2020 13:34 6,5 C 5,6 C 5,6 C 98 % 1011,9 hPa 0,0 l/m 0 min 0 min 61 W/m 32,2 km/h (5 Bft) 100,00 %
24.02.2020 13:36 6,5 C 5,6 C 5,6 C 98 % 1011,8 hPa 0,0 l/m 0 min 0 min 62 W/m 25,7 km/h (4 Bft) 100,00 %
24.02.2020 13:38 6,6 C 6,1 C 5,6 C 98 % 1011,7 hPa 0,0 l/m 0 min 0 min 62 W/m 35,4 km/h (5 Bft) 100,00 %
24.02.2020 13:40 6,6 C 6,1 C 5,6 C 98 % 1011,7 hPa 0,0 l/m 0 min 0 min 64 W/m 29,0 km/h (5 Bft) 100,00 %
24.02.2020 13:42 6,6 C 6,1 C 5,6 C 98 % 1011,6 hPa 0,0 l/m 0 min 0 min 62 W/m 22,5 km/h (4 Bft) 97,87 %
24.02.2020 13:44 6,6 C 6,1 C 5,6 C 98 % 1011,5 hPa 0,0 l/m 0 min 0 min 63 W/m 25,7 km/h (4 Bft) 100,00 %
24.02.2020 13:46 6,7 C 6,1 C 5,6 C 98 % 1011,4 hPa 0,0 l/m 0 min 0 min 69 W/m 29,0 km/h (5 Bft) 100,00 %
24.02.2020 13:48 6,7 C 6,1 C 5,6 C 98 % 1011,3 hPa 0,0 l/m 0 min 0 min 73 W/m 25,7 km/h (4 Bft) 91,49 %
24.02.2020 13:50 6,7 C 6,1 C 5,6 C 98 % 1011,2 hPa 0,0 l/m 0 min 0 min 80 W/m 19,3 km/h (3 Bft) 97,87 %
24.02.2020 13:52 6,8 C 6,1 C 5,6 C 99 % 1011,1 hPa 0,0 l/m 0 min 0 min 92 W/m 25,7 km/h (4 Bft) 95,74 %
24.02.2020 13:54 6,8 C 6,7 C 6,1 C 99 % 1010,9 hPa 0,0 l/m 0 min 0 min 115 W/m 25,7 km/h (4 Bft) 97,87 %
24.02.2020 13:56 6,9 C 6,7 C 6,1 C 99 % 1010,9 hPa 0,0 l/m 0 min 0 min 126 W/m 22,5 km/h (4 Bft) 95,65 %
24.02.2020 13:58 6,9 C 6,7 C 6,1 C 99 % 1010,9 hPa 0,0 l/m 0 min 0 min 106 W/m 25,7 km/h (4 Bft) 95,74 %
24.02.2020 14:00 6,9 C 6,7 C 6,1 C 99 % 1010,9 hPa 0,0 l/m 0 min 0 min 89 W/m 19,3 km/h (3 Bft) 93,62 %
24.02.2020 14:02 7,0 C 6,7 C 6,1 C 99 % 1010,8 hPa 0,0 l/m 0 min 0 min 78 W/m 25,7 km/h (4 Bft) 95,74 %
24.02.2020 14:04 7,1 C 6,7 C 6,1 C 99 % 1011,0 hPa 0,0 l/m 0 min 0 min 72 W/m 22,5 km/h (4 Bft) 95,74 %
24.02.2020 14:06 7,1 C 6,7 C 6,1 C 99 % 1010,7 hPa 0,0 l/m 0 min 0 min 66 W/m 19,3 km/h (3 Bft) 93,62 %
24.02.2020 14:08 7,1 C 6,7 C 6,1 C 98 % 1010,6 hPa 0,0 l/m 0 min 0 min 54 W/m 22,5 km/h (4 Bft) 93,48 %
24.02.2020 14:10 7,1 C 6,7 C 6,1 C 98 % 1010,5 hPa 0,0 l/m 0 min 0 min 50 W/m 19,3 km/h (3 Bft) 93,62 %
24.02.2020 14:12 7,1 C 6,7 C 6,1 C 98 % 1010,5 hPa 0,0 l/m 0 min 0 min 49 W/m 16,1 km/h (3 Bft) 93,62 %
24.02.2020 14:14 7,1 C 6,7 C 6,1 C 98 % 1010,5 hPa 0,0 l/m 0 min 0 min 42 W/m 19,3 km/h (3 Bft) 93,62 %
24.02.2020 14:16 7,1 C 6,7 C 6,1 C 99 % 1010,5 hPa 0,0 l/m 0 min 0 min 38 W/m 22,5 km/h (4 Bft) 87,23 %
24.02.2020 14:18 7,2 C 6,7 C 6,1 C 99 % 1010,4 hPa 0,0 l/m 0 min 0 min 37 W/m 19,3 km/h (3 Bft) 52,27 %
24.02.2020 14:20 7,2 C 6,7 C 6,1 C 99 % 1010,4 hPa 0,0 l/m 0 min 0 min 32 W/m 16,1 km/h (3 Bft) 93,48 %
24.02.2020 14:22 7,2 C 6,7 C 6,1 C 99 % 1010,3 hPa 0,0 l/m 0 min 0 min 31 W/m 16,1 km/h (3 Bft) 91,49 %
24.02.2020 14:24 7,2 C 6,7 C 6,1 C 99 % 1010,2 hPa 0,0 l/m 0 min 0 min 32 W/m 12,9 km/h (3 Bft) 91,49 %
24.02.2020 14:26 7,2 C 6,7 C 6,1 C 99 % 1010,1 hPa 0,0 l/m 0 min 0 min 35 W/m 16,1 km/h (3 Bft) 93,62 %
24.02.2020 14:28 7,3 C 6,7 C 6,1 C 99 % 1010,1 hPa 0,0 l/m 0 min 0 min 34 W/m 12,9 km/h (3 Bft) 93,62 %
24.02.2020 14:30 7,3 C 6,7 C 6,1 C 99 % 1010,1 hPa 0,0 l/m 0 min 0 min 33 W/m 12,9 km/h (3 Bft) 93,48 %
24.02.2020 14:32 7,3 C 7,2 C 6,1 C 99 % 1009,9 hPa 0,0 l/m 0 min 0 min 37 W/m 12,9 km/h (3 Bft) 93,62 %
24.02.2020 14:34 7,3 C 7,2 C 6,1 C 99 % 1009,7 hPa 0,0 l/m 0 min 0 min 44 W/m 16,1 km/h (3 Bft) 91,49 %
24.02.2020 14:36 7,4 C 7,2 C 6,7 C 99 % 1009,6 hPa 0,0 l/m 0 min 0 min 48 W/m 12,9 km/h (3 Bft) 95,74 %
24.02.2020 14:38 7,4 C 7,2 C 6,7 C 99 % 1009,6 hPa 0,0 l/m 0 min 0 min 51 W/m 12,9 km/h (3 Bft) 95,74 %
24.02.2020 14:40 7,6 C 7,2 C 6,7 C 99 % 1009,6 hPa 0,0 l/m 0 min 0 min 48 W/m 16,1 km/h (3 Bft) 97,87 %
24.02.2020 14:42 7,6 C 7,2 C 6,7 C 99 % 1009,5 hPa 0,0 l/m 0 min 0 min 54 W/m 16,1 km/h (3 Bft) 95,65 %
24.02.2020 14:44 7,7 C 7,2 C 6,7 C 99 % 1009,5 hPa 0,0 l/m 0 min 0 min 45 W/m 12,9 km/h (3 Bft) 97,87 %
24.02.2020 14:46 7,7 C 7,2 C 6,7 C 99 % 1009,4 hPa 0,0 l/m 0 min 0 min 40 W/m 22,5 km/h (4 Bft) 95,74 %
24.02.2020 14:48 7,8 C 7,8 C 7,2 C 99 % 1009,4 hPa 0,0 l/m 0 min 0 min 38 W/m 12,9 km/h (3 Bft) 95,74 %
24.02.2020 14:50 7,9 C 7,8 C 7,2 C 99 % 1009,3 hPa 0,0 l/m 0 min 0 min 36 W/m 16,1 km/h (3 Bft) 95,74 %
24.02.2020 14:52 8,0 C 7,8 C 7,2 C 99 % 1009,2 hPa 0,0 l/m 0 min 0 min 35 W/m 22,5 km/h (4 Bft) 95,74 %
24.02.2020 14:54 8,1 C 7,8 C 7,2 C 99 % 1009,3 hPa 0,0 l/m 0 min 0 min 33 W/m 9,7 km/h (2 Bft) 95,65 %
24.02.2020 14:56 8,2 C 7,8 C 7,2 C 99 % 1009,2 hPa 0,0 l/m 0 min 0 min 33 W/m 16,1 km/h (3 Bft) 93,62 %
24.02.2020 14:58 8,3 C 8,3 C 7,8 C 99 % 1009,1 hPa 0,0 l/m 0 min 0 min 37 W/m 22,5 km/h (4 Bft) 100,00 %
24.02.2020 15:00 8,4 C 8,3 C 7,8 C 99 % 1009,2 hPa 0,0 l/m 0 min 0 min 43 W/m 19,3 km/h (3 Bft) 100,00 %
24.02.2020 15:02 8,7 C 8,9 C 7,8 C 99 % 1009,1 hPa 0,0 l/m 0 min 0 min 49 W/m 12,9 km/h (3 Bft) 100,00 %
24.02.2020 15:04 8,8 C 8,9 C 8,3 C 99 % 1009,0 hPa 0,0 l/m 0 min 0 min 43 W/m 29,0 km/h (5 Bft) 100,00 %
24.02.2020 15:06 9,1 C 9,4 C 8,3 C 99 % 1009,0 hPa 0,0 l/m 0 min 0 min 43 W/m 22,5 km/h (4 Bft) 100,00 %
24.02.2020 15:08 9,3 C 9,4 C 8,3 C 99 % 1008,9 hPa 0,0 l/m 0 min 0 min 40 W/m 41,8 km/h (6 Bft) 100,00 %
24.02.2020 15:10 9,5 C 10,0 C 8,9 C 100 % 1008,9 hPa 0,0 l/m 0 min 0 min 28 W/m 25,7 km/h (4 Bft) 100,00 %
24.02.2020 15:12 9,7 C 10,0 C 8,9 C 99 % 1008,8 hPa 0,0 l/m 0 min 0 min 33 W/m 32,2 km/h (5 Bft) 100,00 %
24.02.2020 15:14 9,8 C 10,0 C 8,9 C 100 % 1008,8 hPa 0,0 l/m 0 min 0 min 30 W/m 29,0 km/h (5 Bft) 100,00 %
24.02.2020 15:16 10,0 C 10,0 C 8,9 C 100 % 1008,8 hPa 0,0 l/m 0 min 0 min 35 W/m 22,5 km/h (4 Bft) 100,00 %
24.02.2020 15:18 10,1 C 10,0 C 8,9 C 100 % 1008,9 hPa 0,0 l/m 0 min 0 min 44 W/m 25,7 km/h (4 Bft) 100,00 %
24.02.2020 15:20 10,2 C 10,0 C 8,9 C 100 % 1008,8 hPa 0,0 l/m 0 min 0 min 40 W/m 22,5 km/h (4 Bft) 100,00 %
24.02.2020 15:22 10,3 C 10,0 C 8,9 C 100 % 1008,7 hPa 0,0 l/m 0 min 0 min 28 W/m 32,2 km/h (5 Bft) 100,00 %
24.02.2020 15:24 10,3 C 10,0 C 8,9 C 100 % 1008,6 hPa 0,0 l/m 0 min 2 min 25 W/m 38,6 km/h (5 Bft) 100,00 %
24.02.2020 15:26 10,4 C 10,0 C 8,9 C 100 % 1008,6 hPa 0,0 l/m 0 min 2 min 34 W/m 35,4 km/h (5 Bft) 100,00 %
24.02.2020 15:28 10,5 C 10,0 C 8,9 C 100 % 1008,5 hPa 0,0 l/m 0 min 2 min 32 W/m 35,4 km/h (5 Bft) 97,83 %
24.02.2020 15:30 10,5 C 9,4 C 8,9 C 100 % 1008,5 hPa 0,0 l/m 0 min 2 min 32 W/m 29,0 km/h (5 Bft) 100,00 %
24.02.2020 15:32 10,6 C 9,4 C 8,9 C 100 % 1008,5 hPa 0,0 l/m 0 min 2 min 37 W/m 38,6 km/h (5 Bft) 100,00 %
24.02.2020 15:34 10,6 C 9,4 C 8,9 C 100 % 1008,4 hPa 0,0 l/m 0 min 2 min 31 W/m 19,3 km/h (3 Bft) 100,00 %
24.02.2020 15:36 10,6 C 9,4 C 8,9 C 99 % 1008,4 hPa 0,0 l/m 0 min 2 min 28 W/m 32,2 km/h (5 Bft) 97,87 %
24.02.2020 15:38 10,6 C 9,4 C 8,9 C 99 % 1008,4 hPa 0,2 l/m 0 min 2 min 24 W/m 29,0 km/h (5 Bft) 100,00 %
24.02.2020 15:40 10,7 C 9,4 C 8,9 C 99 % 1008,4 hPa 0,0 l/m 0 min 2 min 19 W/m 25,7 km/h (4 Bft) 100,00 %
24.02.2020 15:42 10,7 C 9,4 C 8,9 C 99 % 1008,4 hPa 0,0 l/m 0 min 2 min 14 W/m 16,1 km/h (3 Bft) 100,00 %
24.02.2020 15:44 10,7 C 9,4 C 8,9 C 99 % 1008,4 hPa 0,2 l/m 0 min 2 min 15 W/m 16,1 km/h (3 Bft) 97,87 %
24.02.2020 15:46 10,7 C 9,4 C 8,9 C 99 % 1008,2 hPa 0,0 l/m 0 min 2 min 14 W/m 19,3 km/h (3 Bft) 100,00 %
24.02.2020 15:48 10,7 C 9,4 C 8,9 C 99 % 1008,2 hPa 0,0 l/m 0 min 2 min 15 W/m 9,7 km/h (2 Bft) 100,00 %
24.02.2020 15:50 10,7 C 9,4 C 8,9 C 99 % 1008,1 hPa 0,0 l/m 0 min 2 min 21 W/m 16,1 km/h (3 Bft) 100,00 %
24.02.2020 15:52 10,7 C 9,4 C 8,9 C 99 % 1008,2 hPa 0,0 l/m 0 min 2 min 25 W/m 32,2 km/h (5 Bft) 100,00 %
24.02.2020 15:54 10,7 C 9,4 C 8,9 C 99 % 1008,1 hPa 0,0 l/m 0 min 2 min 36 W/m 29,0 km/h (5 Bft) 100,00 %
24.02.2020 15:56 10,7 C 9,4 C 8,9 C 99 % 1007,9 hPa 0,0 l/m 0 min 2 min 62 W/m 25,7 km/h (4 Bft) 100,00 %
24.02.2020 15:58 10,7 C 9,4 C 8,9 C 99 % 1007,8 hPa 0,0 l/m 0 min 2 min 72 W/m 29,0 km/h (5 Bft) 100,00 %
24.02.2020 16:00 10,7 C 9,4 C 8,9 C 99 % 1007,8 hPa 0,0 l/m 0 min 2 min 40 W/m 29,0 km/h (5 Bft) 100,00 %
24.02.2020 16:02 10,7 C 9,4 C 8,9 C 99 % 1007,8 hPa 0,0 l/m 0 min 2 min 32 W/m 22,5 km/h (4 Bft) 95,74 %
24.02.2020 16:04 10,7 C 9,4 C 8,9 C 99 % 1007,6 hPa 0,2 l/m 0 min 2 min 23 W/m 25,7 km/h (4 Bft) 100,00 %
24.02.2020 16:06 10,7 C 9,4 C 8,9 C 99 % 1007,6 hPa 0,0 l/m 0 min 2 min 23 W/m 22,5 km/h (4 Bft) 100,00 %
24.02.2020 16:08 10,7 C 9,4 C 8,9 C 99 % 1007,6 hPa 0,0 l/m 0 min 2 min 20 W/m 22,5 km/h (4 Bft) 100,00 %
24.02.2020 16:10 10,7 C 9,4 C 8,9 C 99 % 1007,5 hPa 0,0 l/m 0 min 2 min 29 W/m 25,7 km/h (4 Bft) 97,87 %
24.02.2020 16:12 10,7 C 9,4 C 8,9 C 99 % 1007,5 hPa 0,0 l/m 0 min 2 min 28 W/m 29,0 km/h (5 Bft) 100,00 %
24.02.2020 16:14 10,7 C 9,4 C 8,9 C 99 % 1007,5 hPa 0,0 l/m 0 min 2 min 20 W/m 48,3 km/h (6 Bft) 97,83 %
24.02.2020 16:16 10,7 C 9,4 C 8,9 C 99 % 1007,5 hPa 0,0 l/m 0 min 2 min 21 W/m 22,5 km/h (4 Bft) 100,00 %
24.02.2020 16:18 10,7 C 9,4 C 8,9 C 99 % 1007,3 hPa 0,0 l/m 0 min 2 min 19 W/m 45,1 km/h (6 Bft) 100,00 %
24.02.2020 16:20 10,7 C 9,4 C 8,9 C 99 % 1007,3 hPa 0,0 l/m 0 min 2 min 23 W/m 19,3 km/h (3 Bft) 97,87 %
24.02.2020 16:22 10,7 C 9,4 C 8,9 C 98 % 1007,3 hPa 0,0 l/m 0 min 0 min 25 W/m 25,7 km/h (4 Bft) 97,87 %
24.02.2020 16:24 10,7 C 9,4 C 8,9 C 98 % 1007,2 hPa 0,0 l/m 0 min 2 min 38 W/m 41,8 km/h (6 Bft) 97,87 %
24.02.2020 16:26 10,7 C 10,0 C 8,9 C 98 % 1007,0 hPa 0,0 l/m 0 min 2 min 47 W/m 29,0 km/h (5 Bft) 97,87 %
24.02.2020 16:28 10,7 C 10,0 C 8,9 C 98 % 1007,0 hPa 0,0 l/m 0 min 2 min 59 W/m 35,4 km/h (5 Bft) 95,65 %
24.02.2020 16:30 10,8 C 10,0 C 8,9 C 98 % 1007,0 hPa 0,0 l/m 0 min 2 min 54 W/m 29,0 km/h (5 Bft) 97,87 %
24.02.2020 16:32 10,8 C 10,0 C 8,9 C 98 % 1006,9 hPa 0,0 l/m 0 min 2 min 44 W/m 35,4 km/h (5 Bft) 97,87 %
24.02.2020 16:34 10,8 C 10,0 C 8,9 C 98 % 1006,8 hPa 0,0 l/m 0 min 2 min 32 W/m 41,8 km/h (6 Bft) 97,87 %
24.02.2020 16:36 10,8 C 10,0 C 9,4 C 97 % 1006,8 hPa 0,0 l/m 0 min 2 min 38 W/m 35,4 km/h (5 Bft) 95,74 %
24.02.2020 16:38 10,8 C 10,0 C 8,9 C 97 % 1006,7 hPa 0,0 l/m 0 min 2 min 34 W/m 35,4 km/h (5 Bft) 97,83 %
24.02.2020 16:40 10,9 C 10,0 C 8,9 C 97 % 1006,6 hPa 0,0 l/m 0 min 2 min 29 W/m 48,3 km/h (6 Bft) 97,87 %
24.02.2020 16:42 10,9 C 10,0 C 9,4 C 97 % 1006,7 hPa 0,0 l/m 0 min 2 min 27 W/m 48,3 km/h (6 Bft) 97,87 %
24.02.2020 16:44 11,0 C 10,0 C 9,4 C 96 % 1006,5 hPa 0,0 l/m 0 min 2 min 28 W/m 41,8 km/h (6 Bft) 97,87 %
24.02.2020 16:46 11,0 C 10,0 C 8,9 C 96 % 1006,7 hPa 0,0 l/m 0 min 2 min 21 W/m 32,2 km/h (5 Bft) 97,87 %
24.02.2020 16:48 11,1 C 10,0 C 8,9 C 96 % 1006,7 hPa 0,0 l/m 0 min 2 min 16 W/m 35,4 km/h (5 Bft) 95,74 %
24.02.2020 16:50 11,1 C 10,0 C 8,9 C 95 % 1006,7 hPa 0,0 l/m 0 min 0 min 12 W/m 38,6 km/h (5 Bft) 95,65 %
24.02.2020 16:52 11,1 C 10,0 C 8,9 C 95 % 1006,6 hPa 0,0 l/m 0 min 2 min 11 W/m 48,3 km/h (6 Bft) 95,74 %
24.02.2020 16:54 11,1 C 10,0 C 8,9 C 94 % 1006,6 hPa 0,0 l/m 0 min 0 min 11 W/m 35,4 km/h (5 Bft) 91,49 %
24.02.2020 16:56 11,2 C 10,0 C 8,9 C 94 % 1006,4 hPa 0,0 l/m 0 min 0 min 11 W/m 35,4 km/h (5 Bft) 93,62 %
24.02.2020 16:58 11,2 C 10,0 C 8,9 C 94 % 1006,5 hPa 0,0 l/m 0 min 0 min 8 W/m 32,2 km/h (5 Bft) 95,74 %
24.02.2020 17:00 11,2 C 10,0 C 8,9 C 93 % 1006,5 hPa 0,0 l/m 0 min 0 min 7 W/m 41,8 km/h (6 Bft) 95,74 %
24.02.2020 17:02 11,2 C 10,0 C 8,9 C 93 % 1006,5 hPa 0,0 l/m 0 min 0 min 7 W/m 35,4 km/h (5 Bft) 95,65 %
24.02.2020 17:04 11,2 C 10,0 C 8,9 C 92 % 1006,6 hPa 0,0 l/m 0 min 0 min 7 W/m 22,5 km/h (4 Bft) 97,87 %
24.02.2020 17:06 11,3 C 10,0 C 8,9 C 92 % 1006,5 hPa 0,0 l/m 0 min 0 min 6 W/m 25,7 km/h (4 Bft) 97,87 %
24.02.2020 17:08 11,3 C 10,0 C 8,9 C 92 % 1006,4 hPa 0,0 l/m 0 min 0 min 7 W/m 45,1 km/h (6 Bft) 97,87 %
24.02.2020 17:10 11,3 C 10,0 C 8,9 C 92 % 1006,5 hPa 0,0 l/m 0 min 0 min 6 W/m 25,7 km/h (4 Bft) 91,49 %
24.02.2020 17:12 11,3 C 10,0 C 8,9 C 91 % 1006,5 hPa 0,0 l/m 0 min 0 min 7 W/m 25,7 km/h (4 Bft) 95,65 %
24.02.2020 17:14 11,3 C 10,0 C 8,9 C 91 % 1006,4 hPa 0,0 l/m 0 min 0 min 7 W/m 25,7 km/h (4 Bft) 95,74 %
24.02.2020 17:16 11,3 C 10,0 C 8,9 C 91 % 1006,4 hPa 0,0 l/m 0 min 0 min 7 W/m 25,7 km/h (4 Bft) 95,74 %
24.02.2020 17:18 11,3 C 10,0 C 8,9 C 91 % 1006,4 hPa 0,0 l/m 0 min 0 min 6 W/m 32,2 km/h (5 Bft) 85,11 %
24.02.2020 17:20 11,3 C 10,0 C 8,9 C 91 % 1006,5 hPa 0,0 l/m 0 min 0 min 5 W/m 45,1 km/h (6 Bft) 93,62 %
24.02.2020 17:22 11,3 C 10,0 C 8,9 C 90 % 1006,4 hPa 0,0 l/m 0 min 0 min 5 W/m 41,8 km/h (6 Bft) 95,74 %
24.02.2020 17:24 11,3 C 10,6 C 8,9 C 90 % 1006,4 hPa 0,0 l/m 0 min 0 min 5 W/m 61,2 km/h (7 Bft) 91,30 %
24.02.2020 17:26 11,4 C 10,6 C 8,9 C 90 % 1006,4 hPa 0,0 l/m 0 min 0 min 5 W/m 25,7 km/h (4 Bft) 95,74 %
24.02.2020 17:28 11,4 C 10,0 C 8,9 C 90 % 1006,4 hPa 0,0 l/m 0 min 0 min 5 W/m 25,7 km/h (4 Bft) 95,74 %
24.02.2020 17:30 11,4 C 10,0 C 8,9 C 90 % 1006,3 hPa 0,0 l/m 0 min 2 min 5 W/m 54,7 km/h (7 Bft) 95,74 %
24.02.2020 17:32 11,4 C 10,0 C 8,9 C 90 % 1006,3 hPa 0,0 l/m 0 min 2 min 1 W/m 51,5 km/h (7 Bft) 95,74 %
24.02.2020 17:34 11,3 C 10,0 C 8,9 C 90 % 1006,3 hPa 0,0 l/m 0 min 2 min 0 W/m 29,0 km/h (5 Bft) 97,87 %
24.02.2020 17:36 11,3 C 10,0 C 8,9 C 90 % 1006,3 hPa 0,0 l/m 0 min 2 min 0 W/m 25,7 km/h (4 Bft) 95,65 %
24.02.2020 17:38 11,3 C 10,0 C 8,9 C 90 % 1006,3 hPa 0,0 l/m 0 min 2 min 0 W/m 22,5 km/h (4 Bft) 95,74 %
24.02.2020 17:40 11,3 C 10,0 C 8,9 C 90 % 1006,3 hPa 0,0 l/m 0 min 2 min 0 W/m 35,4 km/h (5 Bft) 93,62 %
24.02.2020 17:42 11,3 C 10,0 C 8,9 C 90 % 1006,2 hPa 0,0 l/m 0 min 2 min 0 W/m 25,7 km/h (4 Bft) 97,87 %
24.02.2020 17:44 11,3 C 10,0 C 8,9 C 90 % 1006,2 hPa 0,0 l/m 0 min 2 min 0 W/m 32,2 km/h (5 Bft) 97,87 %
24.02.2020 17:46 11,3 C 10,0 C 8,9 C 90 % 1006,2 hPa 0,0 l/m 0 min 2 min 0 W/m 35,4 km/h (5 Bft) 95,74 %
24.02.2020 17:48 11,3 C 10,0 C 8,9 C 90 % 1006,2 hPa 0,0 l/m 0 min 2 min 0 W/m 32,2 km/h (5 Bft) 97,83 %
24.02.2020 17:50 11,3 C 10,0 C 8,9 C 90 % 1006,2 hPa 0,0 l/m 0 min 2 min 0 W/m 29,0 km/h (5 Bft) 97,87 %
24.02.2020 17:52 11,3 C 10,0 C 8,9 C 90 % 1006,2 hPa 0,0 l/m 0 min 2 min 0 W/m 25,7 km/h (4 Bft) 97,87 %
24.02.2020 17:54 11,3 C 10,0 C 8,9 C 90 % 1006,3 hPa 0,0 l/m 0 min 2 min 0 W/m 22,5 km/h (4 Bft) 97,87 %
24.02.2020 17:56 11,3 C 9,4 C 8,9 C 90 % 1006,2 hPa 0,0 l/m 0 min 2 min 0 W/m 38,6 km/h (5 Bft) 93,62 %
24.02.2020 17:58 11,3 C 9,4 C 8,3 C 90 % 1006,2 hPa 0,0 l/m 0 min 2 min 0 W/m 25,7 km/h (4 Bft) 100,00 %
24.02.2020 18:00 11,3 C 9,4 C 8,3 C 90 % 1006,1 hPa 0,0 l/m 0 min 2 min 0 W/m 29,0 km/h (5 Bft) 100,00 %
24.02.2020 18:02 11,2 C 9,4 C 8,3 C 90 % 1006,2 hPa 0,0 l/m 0 min 2 min 0 W/m 25,7 km/h (4 Bft) 97,87 %
24.02.2020 18:04 11,2 C 8,9 C 8,3 C 91 % 1006,2 hPa 0,0 l/m 0 min 2 min 0 W/m 25,7 km/h (4 Bft) 100,00 %
24.02.2020 18:08 11,1 C 8,9 C 8,3 C 91 % 1006,2 hPa 0,2 l/m 0 min 4 min 0 W/m 22,5 km/h (4 Bft) 100,00 %
24.02.2020 18:10 11,1 C 8,9 C 8,3 C 91 % 1006,2 hPa 0,0 l/m 0 min 2 min 0 W/m 32,2 km/h (5 Bft) 97,87 %
24.02.2020 18:12 11,1 C 8,9 C 8,3 C 91 % 1006,2 hPa 0,0 l/m 0 min 2 min 0 W/m 19,3 km/h (3 Bft) 100,00 %
24.02.2020 18:14 11,0 C 8,9 C 8,3 C 92 % 1006,2 hPa 0,0 l/m 0 min 2 min 0 W/m 16,1 km/h (3 Bft) 100,00 %
24.02.2020 18:16 10,9 C 8,9 C 8,3 C 92 % 1006,2 hPa 0,0 l/m 0 min 2 min 0 W/m 25,7 km/h (4 Bft) 100,00 %
24.02.2020 18:18 10,9 C 8,9 C 8,3 C 92 % 1006,2 hPa 0,0 l/m 0 min 2 min 0 W/m 16,1 km/h (3 Bft) 100,00 %
24.02.2020 18:20 10,9 C 8,9 C 8,3 C 92 % 1006,2 hPa 0,0 l/m 0 min 2 min 0 W/m 22,5 km/h (4 Bft) 100,00 %
24.02.2020 18:22 10,8 C 8,9 C 8,3 C 93 % 1006,3 hPa 0,2 l/m 0 min 2 min 0 W/m 19,3 km/h (3 Bft) 100,00 %
24.02.2020 18:24 10,8 C 8,9 C 8,3 C 93 % 1006,3 hPa 0,0 l/m 0 min 2 min 0 W/m 22,5 km/h (4 Bft) 97,87 %
24.02.2020 18:26 10,8 C 8,9 C 8,3 C 93 % 1006,2 hPa 0,0 l/m 0 min 2 min 0 W/m 19,3 km/h (3 Bft) 100,00 %
24.02.2020 18:28 10,7 C 8,9 C 8,3 C 93 % 1006,2 hPa 0,0 l/m 0 min 2 min 0 W/m 19,3 km/h (3 Bft) 100,00 %
24.02.2020 18:30 10,7 C 8,9 C 8,3 C 93 % 1006,2 hPa 0,0 l/m 0 min 2 min 0 W/m 25,7 km/h (4 Bft) 100,00 %
24.02.2020 18:32 10,7 C 8,9 C 8,3 C 94 % 1006,1 hPa 0,0 l/m 0 min 2 min 0 W/m 16,1 km/h (3 Bft) 59,57 %
24.02.2020 18:34 10,6 C 8,9 C 8,3 C 94 % 1006,1 hPa 0,0 l/m 0 min 2 min 0 W/m 22,5 km/h (4 Bft) 92,86 %
24.02.2020 18:36 10,6 C 8,9 C 8,3 C 94 % 1006,2 hPa 0,0 l/m 0 min 2 min 0 W/m 19,3 km/h (3 Bft) 100,00 %
24.02.2020 18:38 10,6 C 8,9 C 8,3 C 94 % 1006,1 hPa 0,0 l/m 0 min 2 min 0 W/m 16,1 km/h (3 Bft) 100,00 %
24.02.2020 18:40 10,6 C 8,9 C 8,3 C 94 % 1006,1 hPa 0,0 l/m 0 min 2 min 0 W/m 19,3 km/h (3 Bft) 100,00 %
24.02.2020 18:42 10,6 C 8,9 C 8,3 C 94 % 1006,2 hPa 0,0 l/m 0 min 2 min 0 W/m 29,0 km/h (5 Bft) 100,00 %
24.02.2020 18:44 10,5 C 8,9 C 8,3 C 94 % 1006,2 hPa 0,0 l/m 0 min 2 min 0 W/m 19,3 km/h (3 Bft) 97,87 %
24.02.2020 18:46 10,5 C 8,9 C 8,3 C 95 % 1006,1 hPa 0,2 l/m 0 min 2 min 0 W/m 16,1 km/h (3 Bft) 100,00 %
24.02.2020 18:48 10,5 C 8,9 C 8,3 C 95 % 1006,2 hPa 0,0 l/m 0 min 2 min 0 W/m 12,9 km/h (3 Bft) 100,00 %
24.02.2020 18:50 10,4 C 8,9 C 8,3 C 95 % 1006,0 hPa 0,0 l/m 0 min 2 min 0 W/m 38,6 km/h (5 Bft) 100,00 %
24.02.2020 18:52 10,4 C 8,9 C 8,3 C 95 % 1006,0 hPa 0,0 l/m 0 min 2 min 0 W/m 29,0 km/h (5 Bft) 97,87 %
24.02.2020 18:54 10,4 C 8,9 C 8,3 C 95 % 1005,9 hPa 0,0 l/m 0 min 2 min 0 W/m 35,4 km/h (5 Bft) 95,74 %
24.02.2020 18:56 10,4 C 8,9 C 8,3 C 95 % 1006,0 hPa 0,0 l/m 0 min 2 min 0 W/m 22,5 km/h (4 Bft) 97,87 %
24.02.2020 18:58 10,4 C 8,9 C 8,3 C 95 % 1006,0 hPa 0,0 l/m 0 min 2 min 0 W/m 16,1 km/h (3 Bft) 97,83 %
24.02.2020 19:00 10,4 C 8,9 C 8,3 C 95 % 1006,1 hPa 0,0 l/m 0 min 2 min 0 W/m 22,5 km/h (4 Bft) 93,62 %
24.02.2020 19:02 10,4 C 8,9 C 8,3 C 95 % 1006,1 hPa 0,0 l/m 0 min 2 min 0 W/m 16,1 km/h (3 Bft) 97,87 %
24.02.2020 19:04 10,3 C 8,9 C 8,3 C 96 % 1006,0 hPa 0,0 l/m 0 min 2 min 0 W/m 29,0 km/h (5 Bft) 97,87 %
24.02.2020 19:06 10,3 C 8,9 C 8,3 C 96 % 1006,0 hPa 0,0 l/m 0 min 2 min 0 W/m 16,1 km/h (3 Bft) 95,74 %
24.02.2020 19:08 10,3 C 8,9 C 8,3 C 95 % 1006,1 hPa 0,0 l/m 0 min 2 min 0 W/m 19,3 km/h (3 Bft) 97,87 %
24.02.2020 19:10 10,3 C 8,9 C 8,3 C 96 % 1006,0 hPa 0,0 l/m 0 min 2 min 0 W/m 32,2 km/h (5 Bft) 97,83 %
24.02.2020 19:12 10,3 C 8,9 C 8,3 C 96 % 1006,0 hPa 0,0 l/m 0 min 2 min 0 W/m 29,0 km/h (5 Bft) 95,74 %
24.02.2020 19:14 10,3 C 8,9 C 8,3 C 96 % 1006,1 hPa 0,0 l/m 0 min 2 min 0 W/m 29,0 km/h (5 Bft) 97,87 %
24.02.2020 19:16 10,3 C 8,9 C 8,3 C 96 % 1006,0 hPa 0,0 l/m 0 min 2 min 0 W/m 25,7 km/h (4 Bft) 97,87 %
24.02.2020 19:18 10,3 C 8,9 C 8,3 C 96 % 1006,1 hPa 0,0 l/m 0 min 2 min 0 W/m 12,9 km/h (3 Bft) 97,87 %
24.02.2020 19:20 10,3 C 8,9 C 8,3 C 96 % 1006,0 hPa 0,0 l/m 0 min 2 min 0 W/m 19,3 km/h (3 Bft) 97,87 %
24.02.2020 19:22 10,3 C 8,9 C 8,3 C 96 % 1006,0 hPa 0,0 l/m 0 min 2 min 0 W/m 25,7 km/h (4 Bft) 97,83 %
24.02.2020 19:24 10,3 C 8,9 C 8,3 C 96 % 1005,9 hPa 0,0 l/m 0 min 2 min 0 W/m 22,5 km/h (4 Bft) 97,87 %
24.02.2020 19:26 10,3 C 8,9 C 8,3 C 96 % 1005,9 hPa 0,0 l/m 0 min 2 min 0 W/m 22,5 km/h (4 Bft) 97,87 %
24.02.2020 19:28 10,3 C 8,9 C 8,3 C 96 % 1005,9 hPa 0,2 l/m 0 min 2 min 0 W/m 29,0 km/h (5 Bft) 97,87 %
24.02.2020 19:30 10,3 C 8,9 C 8,3 C 96 % 1005,8 hPa 0,0 l/m 0 min 2 min 0 W/m 19,3 km/h (3 Bft) 95,74 %
24.02.2020 19:32 10,3 C 8,9 C 8,3 C 96 % 1005,8 hPa 0,0 l/m 0 min 2 min 0 W/m 48,3 km/h (6 Bft) 97,83 %
24.02.2020 19:34 10,3 C 8,9 C 8,3 C 96 % 1005,8 hPa 0,0 l/m 0 min 2 min 0 W/m 19,3 km/h (3 Bft) 97,87 %
24.02.2020 19:36 10,3 C 8,9 C 8,3 C 96 % 1005,8 hPa 0,0 l/m 0 min 2 min 0 W/m 41,8 km/h (6 Bft) 100,00 %
24.02.2020 19:38 10,3 C 8,9 C 8,3 C 96 % 1005,9 hPa 0,0 l/m 0 min 2 min 0 W/m 35,4 km/h (5 Bft) 100,00 %
24.02.2020 19:40 10,3 C 8,9 C 8,3 C 96 % 1005,8 hPa 0,0 l/m 0 min 2 min 0 W/m 29,0 km/h (5 Bft) 100,00 %
24.02.2020 19:42 10,3 C 8,9 C 8,3 C 96 % 1005,8 hPa 0,0 l/m 0 min 2 min 0 W/m 16,1 km/h (3 Bft) 97,87 %
24.02.2020 19:44 10,3 C 8,9 C 8,3 C 96 % 1005,8 hPa 0,0 l/m 0 min 2 min 0 W/m 19,3 km/h (3 Bft) 100,00 %
24.02.2020 19:46 10,3 C 8,9 C 8,3 C 96 % 1005,9 hPa 0,0 l/m 0 min 2 min 0 W/m 25,7 km/h (4 Bft) 100,00 %
24.02.2020 19:48 10,3 C 8,9 C 8,3 C 96 % 1006,0 hPa 0,0 l/m 0 min 2 min 0 W/m 35,4 km/h (5 Bft) 97,87 %
24.02.2020 19:49 10,3 C 8,9 C 8,3 C 96 % 1006,1 hPa 0,0 l/m 0 min 1 min 0 W/m 35,4 km/h (5 Bft) 95,74 %
24.02.2020 19:52 10,3 C 8,9 C 8,3 C 96 % 1006,0 hPa 0,0 l/m 0 min 0 min 0 W/m 32,2 km/h (5 Bft) 97,87 %
24.02.2020 19:54 10,3 C 8,9 C 8,3 C 96 % 1006,0 hPa 0,0 l/m 0 min 0 min 0 W/m 22,5 km/h (4 Bft) 100,00 %
24.02.2020 19:56 10,3 C 8,9 C 8,3 C 96 % 1006,1 hPa 0,0 l/m 0 min 0 min 0 W/m 22,5 km/h (4 Bft) 93,48 %
24.02.2020 19:58 10,3 C 8,9 C 8,3 C 96 % 1005,9 hPa 0,0 l/m 0 min 0 min 0 W/m 32,2 km/h (5 Bft) 100,00 %
24.02.2020 20:00 10,3 C 8,9 C 8,3 C 96 % 1005,9 hPa 0,0 l/m 0 min 0 min 0 W/m 29,0 km/h (5 Bft) 95,74 %
24.02.2020 20:02 10,3 C 8,9 C 8,3 C 96 % 1006,0 hPa 0,0 l/m 0 min 0 min 0 W/m 22,5 km/h (4 Bft) 97,87 %
24.02.2020 20:04 10,3 C 8,9 C 8,3 C 96 % 1005,9 hPa 0,0 l/m 0 min 0 min 0 W/m 16,1 km/h (3 Bft) 93,62 %
24.02.2020 20:06 10,4 C 8,9 C 8,3 C 96 % 1006,0 hPa 0,0 l/m 0 min 0 min 0 W/m 35,4 km/h (5 Bft) 95,74 %
24.02.2020 20:08 10,3 C 8,9 C 8,3 C 96 % 1006,1 hPa 0,0 l/m 0 min 0 min 0 W/m 19,3 km/h (3 Bft) 95,65 %
24.02.2020 20:10 10,4 C 8,9 C 8,3 C 96 % 1006,0 hPa 0,0 l/m 0 min 0 min 0 W/m 35,4 km/h (5 Bft) 95,74 %
24.02.2020 20:12 10,4 C 9,4 C 8,9 C 96 % 1005,9 hPa 0,0 l/m 0 min 0 min 0 W/m 35,4 km/h (5 Bft) 95,74 %
24.02.2020 20:14 10,4 C 9,4 C 8,9 C 96 % 1006,0 hPa 0,0 l/m 0 min 0 min 0 W/m 25,7 km/h (4 Bft) 95,74 %
24.02.2020 20:16 10,4 C 9,4 C 8,9 C 96 % 1005,9 hPa 0,0 l/m 0 min 0 min 0 W/m 19,3 km/h (3 Bft) 94,44 %
24.02.2020 20:18 10,4 C 9,4 C 8,9 C 96 % 1005,9 hPa 0,0 l/m 0 min 0 min 0 W/m 45,1 km/h (6 Bft) 95,74 %
24.02.2020 20:20 10,4 C 9,4 C 8,9 C 96 % 1005,9 hPa 0,0 l/m 0 min 0 min 0 W/m 38,6 km/h (5 Bft) 95,74 %
24.02.2020 20:22 10,4 C 9,4 C 8,9 C 96 % 1005,9 hPa 0,0 l/m 0 min 0 min 0 W/m 38,6 km/h (5 Bft) 93,62 %
24.02.2020 20:24 10,4 C 9,4 C 8,9 C 96 % 1005,9 hPa 0,0 l/m 0 min 0 min 0 W/m 32,2 km/h (5 Bft) 95,74 %
24.02.2020 20:26 10,4 C 9,4 C 8,9 C 96 % 1005,9 hPa 0,0 l/m 0 min 0 min 0 W/m 22,5 km/h (4 Bft) 93,48 %
24.02.2020 20:28 10,4 C 9,4 C 8,9 C 96 % 1005,9 hPa 0,0 l/m 0 min 0 min 0 W/m 25,7 km/h (4 Bft) 95,74 %
24.02.2020 20:30 10,4 C 9,4 C 8,9 C 96 % 1005,9 hPa 0,0 l/m 0 min 0 min 0 W/m 25,7 km/h (4 Bft) 97,87 %
24.02.2020 20:32 10,4 C 9,4 C 8,3 C 95 % 1005,8 hPa 0,0 l/m 0 min 0 min 0 W/m 29,0 km/h (5 Bft) 95,74 %
24.02.2020 20:34 10,4 C 8,9 C 8,3 C 95 % 1005,8 hPa 0,0 l/m 0 min 0 min 0 W/m 32,2 km/h (5 Bft) 95,74 %
24.02.2020 20:36 10,5 C 9,4 C 8,3 C 95 % 1005,8 hPa 0,0 l/m 0 min 0 min 0 W/m 35,4 km/h (5 Bft) 95,74 %
24.02.2020 20:38 10,5 C 9,4 C 8,3 C 95 % 1005,8 hPa 0,0 l/m 0 min 0 min 0 W/m 19,3 km/h (3 Bft) 53,49 %
24.02.2020 20:40 10,5 C 8,9 C 8,3 C 95 % 1005,8 hPa 0,0 l/m 0 min 0 min 0 W/m 16,1 km/h (3 Bft) 95,74 %
24.02.2020 20:42 10,5 C 8,9 C 8,3 C 95 % 1005,8 hPa 0,0 l/m 0 min 0 min 0 W/m 25,7 km/h (4 Bft) 95,74 %
24.02.2020 20:44 10,4 C 9,4 C 8,3 C 95 % 1005,8 hPa 0,0 l/m 0 min 0 min 0 W/m 22,5 km/h (4 Bft) 95,74 %
24.02.2020 20:46 10,5 C 8,9 C 8,3 C 95 % 1005,8 hPa 0,0 l/m 0 min 0 min 0 W/m 35,4 km/h (5 Bft) 95,74 %
24.02.2020 20:48 10,5 C 8,9 C 8,3 C 95 % 1005,8 hPa 0,0 l/m 0 min 0 min 0 W/m 25,7 km/h (4 Bft) 95,74 %
24.02.2020 20:50 10,4 C 8,9 C 8,3 C 95 % 1005,8 hPa 0,0 l/m 0 min 0 min 0 W/m 45,1 km/h (6 Bft) 95,65 %
24.02.2020 20:52 10,4 C 8,9 C 8,3 C 95 % 1005,8 hPa 0,0 l/m 0 min 0 min 0 W/m 22,5 km/h (4 Bft) 93,62 %
24.02.2020 20:54 10,4 C 8,9 C 8,3 C 95 % 1005,8 hPa 0,0 l/m 0 min 0 min 0 W/m 25,7 km/h (4 Bft) 97,87 %
24.02.2020 20:56 10,4 C 8,9 C 8,3 C 95 % 1005,8 hPa 0,0 l/m 0 min 0 min 0 W/m 12,9 km/h (3 Bft) 100,00 %
24.02.2020 20:58 10,4 C 8,9 C 8,3 C 95 % 1005,7 hPa 0,0 l/m 0 min 0 min 0 W/m 32,2 km/h (5 Bft) 100,00 %
24.02.2020 21:00 10,4 C 8,9 C 8,3 C 95 % 1005,6 hPa 0,0 l/m 0 min 0 min 0 W/m 25,7 km/h (4 Bft) 97,83 %
24.02.2020 21:02 10,4 C 8,9 C 8,3 C 95 % 1005,7 hPa 0,0 l/m 0 min 0 min 0 W/m 22,5 km/h (4 Bft) 97,87 %
24.02.2020 21:04 10,4 C 8,9 C 8,3 C 95 % 1005,8 hPa 0,0 l/m 0 min 0 min 0 W/m 25,7 km/h (4 Bft) 100,00 %
24.02.2020 21:06 10,3 C 8,9 C 8,3 C 95 % 1005,8 hPa 0,0 l/m 0 min 0 min 0 W/m 32,2 km/h (5 Bft) 100,00 %
24.02.2020 21:08 10,4 C 8,9 C 8,3 C 95 % 1005,8 hPa 0,0 l/m 0 min 0 min 0 W/m 41,8 km/h (6 Bft) 100,00 %
24.02.2020 21:10 10,3 C 8,9 C 8,3 C 95 % 1005,8 hPa 0,0 l/m 0 min 0 min 0 W/m 32,2 km/h (5 Bft) 95,74 %
24.02.2020 21:12 10,4 C 8,9 C 8,3 C 95 % 1005,7 hPa 0,0 l/m 0 min 0 min 0 W/m 25,7 km/h (4 Bft) 100,00 %
24.02.2020 21:14 10,3 C 8,9 C 8,3 C 95 % 1005,7 hPa 0,0 l/m 0 min 0 min 0 W/m 41,8 km/h (6 Bft) 100,00 %
24.02.2020 21:16 10,3 C 8,9 C 8,3 C 95 % 1005,7 hPa 0,0 l/m 0 min 0 min 0 W/m 32,2 km/h (5 Bft) 100,00 %
24.02.2020 21:18 10,3 C 8,9 C 8,3 C 95 % 1005,7 hPa 0,0 l/m 0 min 0 min 0 W/m 16,1 km/h (3 Bft) 100,00 %
24.02.2020 21:20 10,3 C 8,9 C 8,3 C 95 % 1005,7 hPa 0,0 l/m 0 min 0 min 0 W/m 41,8 km/h (6 Bft) 100,00 %
24.02.2020 21:22 10,3 C 8,9 C 8,3 C 95 % 1005,6 hPa 0,0 l/m 0 min 0 min 0 W/m 25,7 km/h (4 Bft) 100,00 %
24.02.2020 21:24 10,3 C 8,9 C 8,3 C 95 % 1005,7 hPa 0,0 l/m 0 min 0 min 0 W/m 19,3 km/h (3 Bft) 97,83 %
24.02.2020 21:26 10,3 C 9,4 C 8,3 C 95 % 1005,6 hPa 0,0 l/m 0 min 0 min 0 W/m 25,7 km/h (4 Bft) 97,87 %
24.02.2020 21:28 10,3 C 9,4 C 8,9 C 95 % 1005,5 hPa 0,0 l/m 0 min 0 min 0 W/m 32,2 km/h (5 Bft) 95,74 %
24.02.2020 21:30 10,3 C 9,4 C 8,9 C 95 % 1005,5 hPa 0,0 l/m 0 min 0 min 0 W/m 29,0 km/h (5 Bft) 97,87 %
24.02.2020 21:32 10,3 C 9,4 C 8,9 C 95 % 1005,6 hPa 0,0 l/m 0 min 0 min 0 W/m 25,7 km/h (4 Bft) 100,00 %
24.02.2020 21:34 10,3 C 9,4 C 8,9 C 95 % 1005,6 hPa 0,0 l/m 0 min 0 min 0 W/m 29,0 km/h (5 Bft) 97,87 %
24.02.2020 21:36 10,3 C 9,4 C 8,9 C 95 % 1005,5 hPa 0,0 l/m 0 min 0 min 0 W/m 22,5 km/h (4 Bft) 97,83 %
24.02.2020 21:38 10,3 C 9,4 C 8,9 C 95 % 1005,4 hPa 0,0 l/m 0 min 0 min 0 W/m 41,8 km/h (6 Bft) 97,87 %
24.02.2020 21:40 10,3 C 9,4 C 8,9 C 95 % 1005,4 hPa 0,0 l/m 0 min 0 min 0 W/m 35,4 km/h (5 Bft) 97,87 %
24.02.2020 21:42 10,3 C 9,4 C 8,9 C 95 % 1005,5 hPa 0,0 l/m 0 min 0 min 0 W/m 32,2 km/h (5 Bft) 97,87 %
24.02.2020 21:44 10,3 C 9,4 C 8,9 C 95 % 1005,4 hPa 0,0 l/m 0 min 0 min 0 W/m 25,7 km/h (4 Bft) 93,62 %
24.02.2020 21:46 10,3 C 9,4 C 8,9 C 95 % 1005,2 hPa 0,0 l/m 0 min 0 min 0 W/m 32,2 km/h (5 Bft) 100,00 %
24.02.2020 21:48 10,3 C 9,4 C 8,9 C 95 % 1005,2 hPa 0,0 l/m 0 min 0 min 0 W/m 25,7 km/h (4 Bft) 95,74 %
24.02.2020 21:50 10,3 C 9,4 C 8,9 C 95 % 1005,1 hPa 0,0 l/m 0 min 0 min 0 W/m 25,7 km/h (4 Bft) 97,87 %
24.02.2020 21:52 10,3 C 9,4 C 8,9 C 95 % 1005,2 hPa 0,0 l/m 0 min 0 min 0 W/m 22,5 km/h (4 Bft) 97,87 %
24.02.2020 21:54 10,3 C 9,4 C 8,9 C 95 % 1005,1 hPa 0,0 l/m 0 min 0 min 0 W/m 22,5 km/h (4 Bft) 97,83 %
24.02.2020 21:56 10,3 C 9,4 C 8,9 C 95 % 1005,3 hPa 0,0 l/m 0 min 0 min 0 W/m 19,3 km/h (3 Bft) 97,87 %
24.02.2020 21:58 10,3 C 9,4 C 8,9 C 95 % 1005,1 hPa 0,0 l/m 0 min 0 min 0 W/m 38,6 km/h (5 Bft) 97,87 %
24.02.2020 22:00 10,3 C 9,4 C 8,9 C 95 % 1005,0 hPa 0,0 l/m 0 min 0 min 0 W/m 29,0 km/h (5 Bft) 97,87 %
24.02.2020 22:02 10,3 C 9,4 C 8,9 C 95 % 1005,1 hPa 0,0 l/m 0 min 0 min 0 W/m 22,5 km/h (4 Bft) 97,87 %
24.02.2020 22:04 10,3 C 9,4 C 8,9 C 95 % 1005,0 hPa 0,0 l/m 0 min 0 min 0 W/m 22,5 km/h (4 Bft) 97,83 %
24.02.2020 22:06 10,3 C 9,4 C 8,9 C 95 % 1004,8 hPa 0,0 l/m 0 min 0 min 0 W/m 25,7 km/h (4 Bft) 95,74 %
24.02.2020 22:08 10,3 C 9,4 C 8,9 C 95 % 1004,7 hPa 0,0 l/m 0 min 0 min 0 W/m 25,7 km/h (4 Bft) 97,87 %
24.02.2020 22:10 10,3 C 9,4 C 8,9 C 95 % 1004,7 hPa 0,0 l/m 0 min 0 min 0 W/m 29,0 km/h (5 Bft) 100,00 %
24.02.2020 22:12 10,3 C 9,4 C 8,9 C 95 % 1004,7 hPa 0,0 l/m 0 min 0 min 0 W/m 16,1 km/h (3 Bft) 97,87 %
24.02.2020 22:14 10,3 C 10,0 C 8,9 C 95 % 1004,7 hPa 0,0 l/m 0 min 0 min 0 W/m 25,7 km/h (4 Bft) 97,87 %
24.02.2020 22:16 10,3 C 9,4 C 8,9 C 95 % 1004,7 hPa 0,0 l/m 0 min 0 min 0 W/m 16,1 km/h (3 Bft) 100,00 %
24.02.2020 22:18 10,3 C 10,0 C 8,9 C 95 % 1004,7 hPa 0,0 l/m 0 min 0 min 0 W/m 25,7 km/h (4 Bft) 100,00 %
24.02.2020 22:20 10,3 C 10,0 C 8,9 C 95 % 1004,7 hPa 0,0 l/m 0 min 0 min 0 W/m 41,8 km/h (6 Bft) 100,00 %
24.02.2020 22:22 10,3 C 10,0 C 8,9 C 95 % 1004,7 hPa 0,0 l/m 0 min 0 min 0 W/m 19,3 km/h (3 Bft) 97,87 %
24.02.2020 22:24 10,3 C 10,0 C 8,9 C 95 % 1004,8 hPa 0,0 l/m 0 min 0 min 0 W/m 25,7 km/h (4 Bft) 100,00 %
24.02.2020 22:26 10,3 C 10,0 C 8,9 C 95 % 1004,8 hPa 0,0 l/m 0 min 0 min 0 W/m 22,5 km/h (4 Bft) 100,00 %
24.02.2020 22:28 10,3 C 10,0 C 8,9 C 95 % 1005,1 hPa 0,0 l/m 0 min 0 min 0 W/m 25,7 km/h (4 Bft) 100,00 %
24.02.2020 22:30 10,4 C 10,0 C 9,4 C 95 % 1005,0 hPa 0,0 l/m 0 min 0 min 0 W/m 45,1 km/h (6 Bft) 100,00 %
24.02.2020 22:32 10,4 C 10,0 C 8,9 C 95 % 1004,9 hPa 0,0 l/m 0 min 0 min 0 W/m 19,3 km/h (3 Bft) 97,87 %
24.02.2020 22:34 10,4 C 9,4 C 8,9 C 95 % 1004,8 hPa 0,0 l/m 0 min 0 min 0 W/m 22,5 km/h (4 Bft) 100,00 %
24.02.2020 22:36 10,4 C 9,4 C 8,9 C 95 % 1004,9 hPa 0,0 l/m 0 min 0 min 0 W/m 29,0 km/h (5 Bft) 100,00 %
24.02.2020 22:38 10,4 C 9,4 C 8,9 C 95 % 1004,9 hPa 0,0 l/m 0 min 2 min 0 W/m 29,0 km/h (5 Bft) 100,00 %
24.02.2020 22:40 10,4 C 8,9 C 8,3 C 95 % 1004,9 hPa 0,0 l/m 0 min 2 min 0 W/m 29,0 km/h (5 Bft) 100,00 %
24.02.2020 22:42 10,4 C 8,9 C 8,3 C 95 % 1004,7 hPa 0,0 l/m 0 min 2 min 0 W/m 22,5 km/h (4 Bft) 97,87 %
24.02.2020 22:44 10,4 C 8,9 C 8,3 C 95 % 1004,9 hPa 0,0 l/m 0 min 2 min 0 W/m 22,5 km/h (4 Bft) 100,00 %
24.02.2020 22:46 10,4 C 8,9 C 8,3 C 95 % 1004,7 hPa 0,0 l/m 0 min 2 min 0 W/m 29,0 km/h (5 Bft) 97,87 %
24.02.2020 22:48 10,4 C 8,9 C 8,3 C 95 % 1004,7 hPa 0,0 l/m 0 min 2 min 0 W/m 29,0 km/h (5 Bft) 52,38 %
24.02.2020 22:50 10,3 C 8,9 C 8,3 C 95 % 1004,7 hPa 0,0 l/m 0 min 2 min 0 W/m 19,3 km/h (3 Bft) 97,83 %
24.02.2020 22:52 10,3 C 8,9 C 8,3 C 95 % 1004,8 hPa 0,0 l/m 0 min 2 min 0 W/m 32,2 km/h (5 Bft) 95,74 %
24.02.2020 22:54 10,3 C 8,9 C 8,3 C 95 % 1004,8 hPa 0,0 l/m 0 min 2 min 0 W/m 19,3 km/h (3 Bft) 100,00 %
24.02.2020 22:56 10,3 C 8,9 C 8,3 C 95 % 1004,7 hPa 0,0 l/m 0 min 2 min 0 W/m 41,8 km/h (6 Bft) 95,74 %
24.02.2020 22:58 10,3 C 8,9 C 8,3 C 95 % 1004,7 hPa 0,0 l/m 0 min 2 min 0 W/m 25,7 km/h (4 Bft) 100,00 %
24.02.2020 23:00 10,3 C 8,9 C 8,3 C 95 % 1004,7 hPa 0,0 l/m 0 min 2 min 0 W/m 19,3 km/h (3 Bft) 100,00 %
24.02.2020 23:02 10,3 C 8,9 C 8,3 C 95 % 1004,7 hPa 0,0 l/m 0 min 2 min 0 W/m 16,1 km/h (3 Bft) 97,83 %
24.02.2020 23:04 10,3 C 8,9 C 8,3 C 95 % 1004,7 hPa 0,0 l/m 0 min 2 min 0 W/m 35,4 km/h (5 Bft) 95,83 %
24.02.2020 23:06 10,3 C 8,9 C 8,3 C 96 % 1004,7 hPa 0,0 l/m 0 min 2 min 0 W/m 29,0 km/h (5 Bft) 97,87 %
24.02.2020 23:08 10,3 C 8,9 C 8,3 C 96 % 1004,5 hPa 0,0 l/m 0 min 2 min 0 W/m 29,0 km/h (5 Bft) 97,87 %
24.02.2020 23:10 10,3 C 8,9 C 8,3 C 96 % 1004,7 hPa 0,0 l/m 0 min 2 min 0 W/m 38,6 km/h (5 Bft) 97,83 %
24.02.2020 23:12 10,2 C 8,9 C 8,3 C 96 % 1004,6 hPa 0,0 l/m 0 min 2 min 0 W/m 38,6 km/h (5 Bft) 93,62 %
24.02.2020 23:14 10,3 C 8,9 C 8,3 C 96 % 1004,6 hPa 0,0 l/m 0 min 2 min 0 W/m 48,3 km/h (6 Bft) 95,74 %
24.02.2020 23:16 10,3 C 8,9 C 8,3 C 96 % 1004,6 hPa 0,0 l/m 0 min 2 min 0 W/m 19,3 km/h (3 Bft) 95,74 %
24.02.2020 23:18 10,3 C 8,9 C 8,3 C 96 % 1004,7 hPa 0,0 l/m 0 min 2 min 0 W/m 32,2 km/h (5 Bft) 95,74 %
24.02.2020 23:20 10,3 C 8,9 C 8,3 C 96 % 1004,7 hPa 0,0 l/m 0 min 2 min 0 W/m 29,0 km/h (5 Bft) 97,87 %
24.02.2020 23:22 10,2 C 8,9 C 8,3 C 96 % 1004,5 hPa 0,0 l/m 0 min 2 min 0 W/m 22,5 km/h (4 Bft) 95,65 %
24.02.2020 23:24 10,3 C 8,9 C 8,3 C 96 % 1004,6 hPa 0,0 l/m 0 min 2 min 0 W/m 25,7 km/h (4 Bft) 93,62 %
24.02.2020 23:26 10,3 C 9,4 C 8,3 C 96 % 1004,6 hPa 0,0 l/m 0 min 2 min 0 W/m 22,5 km/h (4 Bft) 95,74 %
24.02.2020 23:28 10,2 C 9,4 C 8,3 C 96 % 1004,7 hPa 0,0 l/m 0 min 0 min 0 W/m 38,6 km/h (5 Bft) 97,87 %
24.02.2020 23:30 10,3 C 9,4 C 8,9 C 96 % 1004,6 hPa 0,0 l/m 0 min 2 min 0 W/m 32,2 km/h (5 Bft) 95,74 %
24.02.2020 23:32 10,3 C 9,4 C 8,3 C 96 % 1004,6 hPa 0,0 l/m 0 min 2 min 0 W/m 22,5 km/h (4 Bft) 95,74 %
24.02.2020 23:34 10,3 C 9,4 C 8,9 C 96 % 1004,7 hPa 0,0 l/m 0 min 2 min 0 W/m 29,0 km/h (5 Bft) 95,65 %
24.02.2020 23:36 10,3 C 9,4 C 8,9 C 96 % 1004,5 hPa 0,0 l/m 0 min 2 min 0 W/m 19,3 km/h (3 Bft) 95,74 %
24.02.2020 23:38 10,3 C 9,4 C 8,9 C 96 % 1004,5 hPa 0,0 l/m 0 min 0 min 0 W/m 16,1 km/h (3 Bft) 93,62 %
24.02.2020 23:40 10,3 C 9,4 C 8,9 C 96 % 1004,6 hPa 0,0 l/m 0 min 2 min 0 W/m 22,5 km/h (4 Bft) 95,74 %
24.02.2020 23:42 10,3 C 9,4 C 8,9 C 96 % 1004,5 hPa 0,0 l/m 0 min 2 min 0 W/m 29,0 km/h (5 Bft) 95,74 %
24.02.2020 23:44 10,3 C 9,4 C 8,9 C 96 % 1004,5 hPa 0,0 l/m 0 min 0 min 0 W/m 41,8 km/h (6 Bft) 93,62 %
24.02.2020 23:46 10,3 C 9,4 C 8,9 C 96 % 1004,4 hPa 0,0 l/m 0 min 0 min 0 W/m 25,7 km/h (4 Bft) 95,65 %
24.02.2020 23:48 10,3 C 9,4 C 8,9 C 96 % 1004,5 hPa 0,0 l/m 0 min 2 min 0 W/m 22,5 km/h (4 Bft) 97,87 %
24.02.2020 23:50 10,3 C 9,4 C 8,9 C 96 % 1004,5 hPa 0,0 l/m 0 min 2 min 0 W/m 38,6 km/h (5 Bft) 95,74 %
24.02.2020 23:52 10,3 C 9,4 C 8,9 C 96 % 1004,4 hPa 0,0 l/m 0 min 2 min 0 W/m 29,0 km/h (5 Bft) 95,74 %
24.02.2020 23:54 10,3 C 9,4 C 8,9 C 96 % 1004,4 hPa 0,0 l/m 0 min 2 min 0 W/m 19,3 km/h (3 Bft) 91,49 %
24.02.2020 23:56 10,3 C 9,4 C 8,9 C 96 % 1004,6 hPa 0,0 l/m 0 min 2 min 0 W/m 35,4 km/h (5 Bft) 97,87 %
24.02.2020 23:58 10,3 C 9,4 C 8,9 C 96 % 1004,5 hPa 0,0 l/m 0 min 0 min 0 W/m 29,0 km/h (5 Bft) 95,65 %
_ Min-Zeit 02:40 02:24 00:58 00:48 23:46 - - - - 00:36 01:00
Minimum _ 3,3 C 2,2 C 1,7 C 87 % 1004,4 hPa - - - - 0,0 km/h (0 Bft) 50,00 %
_ Max-Zeit 17:26 17:24 16:36 15:10 02:38 09:52 00:00 18:08 13:56 17:24 00:00
Maximum _ 11,4 C 10,6 C 9,4 C 100 % 1024,6 hPa 0,2 l/m 0 min 4 min 126 W/m 61,2 km/h
SO (7 Bft)
100,00 %
Durchschnitt _ 6,9 C 6,1 C 5,4 C 93 % 1014,9 hPa #3,0 l/m #0 min. #6:25 h 43 W/m 18,6 km/h (3 Bft) 97,04 %
© 2020 W. Hausmann